Time,TemperatureF,DewpointF,PressureIn,WindDirection,WindDirectionDegrees,WindSpeedMPH,WindSpeedGustMPH,Humidity,HourlyPrecipIn,Conditions,Clouds,dailyrainin,SoftwareType,DateUTC
2013-02-04 00:00:00,-1.3,-27.2,29.78,NW,326,5.4,5.4,27,0.00,,---,0.00,VWS V14.00,2013-02-04 05:00:00,
2013-02-04 00:01:00,-1.3,-27.2,29.78,NW,325,4.0,5.4,27,0.00,,---,0.00,VWS V14.00,2013-02-04 05:01:00,
2013-02-04 00:02:00,-1.3,-27.2,29.78,NW,325,4.0,4.7,27,0.00,,---,0.00,VWS V14.00,2013-02-04 05:02:00,
2013-02-04 00:05:00,-1.3,-27.2,29.78,NW,325,4.7,4.7,27,0.00,,---,0.00,VWS V14.00,2013-02-04 05:05:00,
2013-02-04 00:06:00,-1.3,-27.2,29.78,NW,326,5.4,5.4,27,0.00,,---,0.00,VWS V14.00,2013-02-04 05:06:00,
2013-02-04 00:07:00,-1.3,-27.2,29.78,NW,326,4.0,4.0,27,0.00,,---,0.00,VWS V14.00,2013-02-04 05:07:00,
2013-02-04 00:10:00,-1.3,-27.2,29.78,NW,326,4.0,4.7,27,0.00,,---,0.00,VWS V14.00,2013-02-04 05:10:00,
2013-02-04 00:11:00,-1.3,-27.2,29.78,NW,326,4.0,5.4,27,0.00,,---,0.00,VWS V14.00,2013-02-04 05:11:00,
2013-02-04 00:12:00,-1.3,-27.2,29.78,NW,326,4.0,4.0,27,0.00,,---,0.00,VWS V14.00,2013-02-04 05:12:00,
2013-02-04 00:15:00,-1.7,-27.5,29.78,NW,326,4.7,4.7,27,0.00,,---,0.00,VWS V14.00,2013-02-04 05:15:00,
2013-02-04 00:17:00,-1.7,-27.5,29.78,NW,326,4.7,4.7,27,0.00,,---,0.00,VWS V14.00,2013-02-04 05:17:00,
2013-02-04 00:20:00,-1.3,-27.2,29.78,NW,325,4.0,4.7,27,0.00,,---,0.00,VWS V14.00,2013-02-04 05:20:00,
2013-02-04 00:22:00,-1.3,-27.2,29.78,NW,325,4.0,4.7,27,0.00,,---,0.00,VWS V14.00,2013-02-04 05:22:00,
2013-02-04 00:25:00,-1.5,-27.3,29.78,NW,325,4.0,4.7,27,0.00,,---,0.00,VWS V14.00,2013-02-04 05:25:00,
2013-02-04 00:27:00,-1.5,-27.3,29.78,NW,325,4.0,4.7,27,0.00,,---,0.00,VWS V14.00,2013-02-04 05:27:00,
2013-02-04 00:30:00,-1.7,-27.5,29.78,NW,326,4.7,5.4,27,0.00,,---,0.00,VWS V14.00,2013-02-04 05:30:00,
2013-02-04 00:32:00,-1.7,-27.5,29.78,NW,325,4.7,4.7,27,0.00,,---,0.00,VWS V14.00,2013-02-04 05:32:00,
2013-02-04 00:35:00,-1.8,-27.6,29.78,NW,326,4.0,4.7,27,0.00,,---,0.00,VWS V14.00,2013-02-04 05:35:00,
2013-02-04 00:37:00,-2.0,-27.8,29.78,NW,326,4.7,4.7,27,0.00,,---,0.00,VWS V14.00,2013-02-04 05:37:00,
2013-02-04 00:38:00,-2.0,-27.8,29.78,NW,326,4.0,4.7,27,0.00,,---,0.00,VWS V14.00,2013-02-04 05:38:00,
2013-02-04 00:40:00,-2.0,-27.8,29.78,NW,325,3.4,4.7,27,0.00,,---,0.00,VWS V14.00,2013-02-04 05:40:00,
2013-02-04 00:41:00,-2.0,-27.8,29.78,NW,326,4.0,4.7,27,0.00,,---,0.00,VWS V14.00,2013-02-04 05:41:00,
2013-02-04 00:42:00,-2.2,-28.0,29.78,NW,326,4.7,4.7,27,0.00,,---,0.00,VWS V14.00,2013-02-04 05:42:00,
2013-02-04 00:43:00,-2.2,-28.0,29.78,NW,325,4.0,4.7,27,0.00,,---,0.00,VWS V14.00,2013-02-04 05:43:00,
2013-02-04 00:45:00,-2.4,-28.1,29.78,NW,326,4.7,4.7,27,0.00,,---,0.00,VWS V14.00,2013-02-04 05:45:00,
2013-02-04 00:46:00,-2.4,-28.1,29.78,NW,326,4.0,4.7,27,0.00,,---,0.00,VWS V14.00,2013-02-04 05:46:00,
2013-02-04 00:47:00,-2.4,-28.1,29.78,NW,326,4.0,5.4,27,0.00,,---,0.00,VWS V14.00,2013-02-04 05:47:00,
2013-02-04 00:48:00,-2.4,-28.1,29.78,NW,326,6.0,6.0,27,0.00,,---,0.00,VWS V14.00,2013-02-04 05:48:00,
2013-02-04 00:50:00,-2.2,-28.0,29.78,NW,326,5.4,5.4,27,0.00,,---,0.00,VWS V14.00,2013-02-04 05:50:00,
2013-02-04 00:51:00,-2.2,-28.0,29.78,NW,326,4.0,4.0,27,0.00,,---,0.00,VWS V14.00,2013-02-04 05:51:00,
2013-02-04 00:52:00,-2.4,-28.1,29.78,NW,326,4.0,4.7,27,0.00,,---,0.00,VWS V14.00,2013-02-04 05:52:00,
2013-02-04 00:53:00,-2.4,-28.1,29.78,NW,326,4.0,4.7,27,0.00,,---,0.00,VWS V14.00,2013-02-04 05:53:00,
2013-02-04 00:55:00,-2.4,-28.1,29.78,NW,325,4.7,4.7,27,0.00,,---,0.00,VWS V14.00,2013-02-04 05:55:00,
2013-02-04 00:56:00,-2.4,-28.1,29.78,NW,326,4.7,4.7,27,0.00,,---,0.00,VWS V14.00,2013-02-04 05:56:00,
2013-02-04 00:57:00,-2.6,-28.3,29.78,NW,325,4.0,4.0,27,0.00,,---,0.00,VWS V14.00,2013-02-04 05:57:00,
2013-02-04 00:58:00,-2.6,-28.3,29.78,NW,326,4.0,4.0,27,0.00,,---,0.00,VWS V14.00,2013-02-04 05:58:00,
2013-02-04 01:01:00,-2.4,-28.1,29.78,NW,326,4.7,5.4,27,0.00,,---,0.00,VWS V14.00,2013-02-04 06:01:00,
2013-02-04 01:02:00,-2.6,-28.3,29.78,NW,326,4.7,4.7,27,0.00,,---,0.00,VWS V14.00,2013-02-04 06:02:00,
2013-02-04 01:03:00,-2.6,-28.3,29.78,NW,326,4.7,4.7,27,0.00,,---,0.00,VWS V14.00,2013-02-04 06:03:00,
2013-02-04 01:06:00,-2.6,-28.3,29.78,NW,325,4.0,4.0,27,0.00,,---,0.00,VWS V14.00,2013-02-04 06:06:00,
2013-02-04 01:07:00,-2.6,-28.3,29.78,NW,325,4.0,4.7,27,0.00,,---,0.00,VWS V14.00,2013-02-04 06:07:00,
2013-02-04 01:08:00,-2.6,-28.3,29.78,NW,326,4.7,4.7,27,0.00,,---,0.00,VWS V14.00,2013-02-04 06:08:00,
2013-02-04 01:11:00,-2.6,-28.3,29.78,NW,326,5.4,5.4,27,0.00,,---,0.00,VWS V14.00,2013-02-04 06:11:00,
2013-02-04 01:13:00,-2.7,-28.4,29.78,NW,326,4.7,5.4,27,0.00,,---,0.00,VWS V14.00,2013-02-04 06:13:00,
2013-02-04 01:16:00,-2.7,-28.4,29.78,NW,325,5.4,5.4,27,0.00,,---,0.00,VWS V14.00,2013-02-04 06:16:00,
2013-02-04 01:18:00,-2.7,-28.4,29.78,NW,326,4.0,5.4,27,0.00,,---,0.00,VWS V14.00,2013-02-04 06:18:00,
2013-02-04 01:21:00,-3.1,-28.7,29.78,NW,325,4.0,4.7,27,0.00,,---,0.00,VWS V14.00,2013-02-04 06:21:00,
2013-02-04 01:23:00,-3.1,-28.7,29.78,NW,326,3.4,4.0,27,0.00,,---,0.00,VWS V14.00,2013-02-04 06:23:00,
2013-02-04 01:26:00,-3.3,-28.9,29.78,NW,326,4.0,4.0,27,0.00,,---,0.00,VWS V14.00,2013-02-04 06:26:00,
2013-02-04 01:28:00,-3.5,-29.1,29.78,NW,326,0.0,0.0,27,0.00,,---,0.00,VWS V14.00,2013-02-04 06:28:00,
2013-02-04 01:31:00,-3.5,-29.1,29.78,NW,326,4.0,4.0,27,0.00,,---,0.00,VWS V14.00,2013-02-04 06:31:00,
2013-02-04 01:33:00,-3.5,-29.1,29.78,NW,326,4.0,4.0,27,0.00,,---,0.00,VWS V14.00,2013-02-04 06:33:00,
2013-02-04 01:36:00,-3.5,-29.1,29.78,NW,326,4.7,4.7,27,0.00,,---,0.00,VWS V14.00,2013-02-04 06:36:00,
2013-02-04 01:38:00,-3.5,-29.1,29.78,NW,325,4.0,4.7,27,0.00,,---,0.00,VWS V14.00,2013-02-04 06:38:00,
2013-02-04 01:41:00,-3.5,-29.1,29.78,NW,326,4.7,4.7,27,0.00,,---,0.00,VWS V14.00,2013-02-04 06:41:00,
2013-02-04 01:43:00,-3.5,-29.1,29.78,NW,325,4.7,4.7,27,0.00,,---,0.00,VWS V14.00,2013-02-04 06:43:00,
2013-02-04 01:46:00,-3.5,-29.1,29.78,NW,326,3.4,4.7,27,0.00,,---,0.00,VWS V14.00,2013-02-04 06:46:00,
2013-02-04 01:47:00,-3.5,-29.1,29.78,NW,326,4.0,4.7,27,0.00,,---,0.00,VWS V14.00,2013-02-04 06:47:00,
2013-02-04 01:48:00,-3.5,-29.1,29.78,NW,326,4.7,5.4,27,0.00,,---,0.00,VWS V14.00,2013-02-04 06:48:00,
2013-02-04 01:51:00,-3.5,-29.1,29.78,NW,326,4.0,4.0,27,0.00,,---,0.00,VWS V14.00,2013-02-04 06:51:00,
2013-02-04 01:52:00,-3.5,-29.1,29.78,NW,326,4.0,4.0,27,0.00,,---,0.00,VWS V14.00,2013-02-04 06:52:00,
2013-02-04 01:53:00,-3.3,-28.9,29.78,NW,326,4.0,4.7,27,0.00,,---,0.00,VWS V14.00,2013-02-04 06:53:00,
2013-02-04 01:54:00,-3.3,-28.9,29.78,NW,326,4.0,4.7,27,0.00,,---,0.00,VWS V14.00,2013-02-04 06:54:00,
2013-02-04 01:56:00,-3.5,-29.1,29.78,NW,326,4.0,4.0,27,0.00,,---,0.00,VWS V14.00,2013-02-04 06:56:00,
2013-02-04 01:57:00,-3.5,-29.1,29.78,NW,326,4.0,4.0,27,0.00,,---,0.00,VWS V14.00,2013-02-04 06:57:00,
2013-02-04 01:59:00,-3.5,-29.1,29.78,NW,326,4.0,4.0,27,0.00,,---,0.00,VWS V14.00,2013-02-04 06:59:00,
2013-02-04 02:02:00,-3.8,-29.4,29.78,NW,325,3.4,4.0,27,0.00,,---,0.00,VWS V14.00,2013-02-04 07:02:00,
2013-02-04 02:04:00,-3.8,-29.4,29.78,NW,326,4.0,4.0,27,0.00,,---,0.00,VWS V14.00,2013-02-04 07:04:00,
2013-02-04 02:07:00,-3.8,-29.4,29.78,NW,326,4.0,4.0,27,0.00,,---,0.00,VWS V14.00,2013-02-04 07:07:00,
2013-02-04 02:09:00,-3.8,-29.4,29.78,NW,326,4.0,4.0,27,0.00,,---,0.00,VWS V14.00,2013-02-04 07:09:00,
2013-02-04 02:12:00,-3.6,-29.2,29.78,NW,326,4.0,4.0,27,0.00,,---,0.00,VWS V14.00,2013-02-04 07:12:00,
2013-02-04 02:14:00,-3.6,-29.2,29.78,NW,326,4.0,4.0,27,0.00,,---,0.00,VWS V14.00,2013-02-04 07:14:00,
2013-02-04 02:17:00,-3.5,-29.1,29.78,NW,325,3.4,4.0,27,0.00,,---,0.00,VWS V14.00,2013-02-04 07:17:00,
2013-02-04 02:19:00,-3.5,-29.1,29.78,NW,325,4.0,4.0,27,0.00,,---,0.00,VWS V14.00,2013-02-04 07:19:00,
2013-02-04 02:22:00,-3.5,-29.1,29.78,NW,326,4.7,4.7,27,0.00,,---,0.00,VWS V14.00,2013-02-04 07:22:00,
2013-02-04 02:24:00,-3.5,-29.1,29.78,NW,325,4.7,4.7,27,0.00,,---,0.00,VWS V14.00,2013-02-04 07:24:00,
2013-02-04 02:27:00,-3.5,-29.1,29.78,NW,326,4.0,4.0,27,0.00,,---,0.00,VWS V14.00,2013-02-04 07:27:00,
2013-02-04 02:29:00,-3.5,-29.1,29.78,NW,326,4.0,4.0,27,0.00,,---,0.00,VWS V14.00,2013-02-04 07:29:00,
2013-02-04 02:32:00,-3.5,-29.1,29.78,NW,326,4.0,4.0,27,0.00,,---,0.00,VWS V14.00,2013-02-04 07:32:00,
2013-02-04 02:34:00,-3.6,-29.2,29.78,NW,326,4.0,4.0,27,0.00,,---,0.00,VWS V14.00,2013-02-04 07:34:00,
2013-02-04 02:37:00,-3.6,-29.2,29.78,NW,325,3.4,3.4,27,0.00,,---,0.00,VWS V14.00,2013-02-04 07:37:00,
2013-02-04 02:39:00,-3.8,-29.4,29.78,NW,326,3.4,4.0,27,0.00,,---,0.00,VWS V14.00,2013-02-04 07:39:00,
2013-02-04 02:40:00,-3.8,-29.4,29.78,NW,326,3.4,4.0,27,0.00,,---,0.00,VWS V14.00,2013-02-04 07:40:00,
2013-02-04 02:42:00,-3.8,-29.4,29.78,NW,325,4.0,4.0,27,0.00,,---,0.00,VWS V14.00,2013-02-04 07:42:00,
2013-02-04 02:45:00,-3.8,-29.4,29.78,NW,326,4.0,4.7,27,0.00,,---,0.00,VWS V14.00,2013-02-04 07:45:00,
2013-02-04 02:47:00,-3.8,-29.4,29.78,NW,326,4.0,4.7,27,0.00,,---,0.00,VWS V14.00,2013-02-04 07:47:00,
2013-02-04 02:50:00,-3.8,-29.4,29.78,NW,326,4.7,4.7,27,0.00,,---,0.00,VWS V14.00,2013-02-04 07:50:00,
2013-02-04 02:52:00,-3.6,-29.2,29.78,NW,326,4.0,4.7,27,0.00,,---,0.00,VWS V14.00,2013-02-04 07:52:00,
2013-02-04 02:55:00,-3.5,-29.1,29.78,NW,326,4.7,4.7,27,0.00,,---,0.00,VWS V14.00,2013-02-04 07:55:00,
2013-02-04 02:57:00,-3.5,-29.1,29.78,NW,326,4.0,4.7,27,0.00,,---,0.00,VWS V14.00,2013-02-04 07:57:00,
2013-02-04 02:58:00,-3.5,-29.1,29.78,NW,326,4.7,4.7,27,0.00,,---,0.00,VWS V14.00,2013-02-04 07:58:00,
2013-02-04 03:00:00,-3.5,-29.1,29.78,NW,326,4.0,4.7,27,0.00,,---,0.00,VWS V14.00,2013-02-04 08:00:00,
2013-02-04 03:02:00,-3.8,-29.4,29.78,NW,326,0.0,5.4,27,0.00,,---,0.00,VWS V14.00,2013-02-04 08:02:00,
2013-02-04 03:03:00,-3.8,-29.4,29.78,NW,325,5.4,5.4,27,0.00,,---,0.00,VWS V14.00,2013-02-04 08:03:00,
2013-02-04 03:05:00,-3.8,-29.4,29.78,NW,326,4.0,5.4,27,0.00,,---,0.00,VWS V14.00,2013-02-04 08:05:00,
2013-02-04 03:07:00,-3.8,-29.4,29.78,NW,325,4.0,4.0,27,0.00,,---,0.00,VWS V14.00,2013-02-04 08:07:00,
2013-02-04 03:08:00,-3.8,-29.4,29.78,NW,326,4.0,4.7,27,0.00,,---,0.00,VWS V14.00,2013-02-04 08:08:00,
2013-02-04 03:10:00,-3.8,-29.4,29.78,NW,326,4.0,4.0,27,0.00,,---,0.00,VWS V14.00,2013-02-04 08:10:00,
2013-02-04 03:13:00,-3.8,-29.4,29.78,NW,325,4.0,4.7,27,0.00,,---,0.00,VWS V14.00,2013-02-04 08:13:00,
2013-02-04 03:15:00,-3.8,-29.4,29.78,NW,326,4.0,5.4,27,0.00,,---,0.00,VWS V14.00,2013-02-04 08:15:00,
2013-02-04 03:18:00,-3.8,-29.4,29.78,NW,326,4.0,4.7,27,0.00,,---,0.00,VWS V14.00,2013-02-04 08:18:00,
2013-02-04 03:20:00,-3.8,-29.4,29.78,NW,326,4.0,5.4,27,0.00,,---,0.00,VWS V14.00,2013-02-04 08:20:00,
2013-02-04 03:21:00,-3.8,-29.4,29.78,NW,325,4.0,4.7,27,0.00,,---,0.00,VWS V14.00,2013-02-04 08:21:00,
2013-02-04 03:23:00,-3.8,-29.4,29.78,NW,326,4.0,4.7,27,0.00,,---,0.00,VWS V14.00,2013-02-04 08:23:00,
2013-02-04 03:24:00,-3.8,-29.4,29.78,NW,326,4.0,4.7,27,0.00,,---,0.00,VWS V14.00,2013-02-04 08:24:00,
2013-02-04 03:25:00,-3.8,-29.4,29.78,NW,325,4.0,4.0,27,0.00,,---,0.00,VWS V14.00,2013-02-04 08:25:00,
2013-02-04 03:26:00,-3.8,-29.4,29.78,NW,326,4.7,4.7,27,0.00,,---,0.00,VWS V14.00,2013-02-04 08:26:00,
2013-02-04 03:28:00,-4.0,-29.5,29.78,NW,326,3.4,5.4,27,0.00,,---,0.00,VWS V14.00,2013-02-04 08:28:00,
2013-02-04 03:29:00,-3.8,-29.4,29.78,NW,326,4.0,5.4,27,0.00,,---,0.00,VWS V14.00,2013-02-04 08:29:00,
2013-02-04 03:30:00,-3.8,-29.4,29.78,NW,326,5.4,5.4,27,0.00,,---,0.00,VWS V14.00,2013-02-04 08:30:00,
2013-02-04 03:31:00,-3.8,-29.4,29.78,NW,326,6.0,6.0,27,0.00,,---,0.00,VWS V14.00,2013-02-04 08:31:00,
2013-02-04 03:33:00,-3.8,-29.4,29.78,NW,326,3.4,6.0,27,0.00,,---,0.00,VWS V14.00,2013-02-04 08:33:00,
2013-02-04 03:34:00,-3.8,-29.4,29.78,NW,326,4.0,4.0,27,0.00,,---,0.00,VWS V14.00,2013-02-04 08:34:00,
2013-02-04 03:35:00,-3.6,-29.2,29.78,NW,326,4.7,4.7,27,0.00,,---,0.00,VWS V14.00,2013-02-04 08:35:00,
2013-02-04 03:36:00,-3.8,-29.4,29.78,NW,325,5.4,5.4,27,0.00,,---,0.00,VWS V14.00,2013-02-04 08:36:00,
2013-02-04 03:38:00,-3.6,-29.2,29.78,NW,326,4.0,6.0,27,0.00,,---,0.00,VWS V14.00,2013-02-04 08:38:00,
2013-02-04 03:39:00,-3.6,-29.2,29.78,NW,325,5.4,5.4,27,0.00,,---,0.00,VWS V14.00,2013-02-04 08:39:00,
2013-02-04 03:40:00,-3.8,-29.4,29.78,NW,326,3.4,4.7,27,0.00,,---,0.00,VWS V14.00,2013-02-04 08:40:00,
2013-02-04 03:41:00,-3.8,-29.4,29.78,NW,326,0.0,5.4,27,0.00,,---,0.00,VWS V14.00,2013-02-04 08:41:00,
2013-02-04 03:43:00,-3.8,-29.4,29.78,NW,326,4.0,4.0,27,0.00,,---,0.00,VWS V14.00,2013-02-04 08:43:00,
2013-02-04 03:44:00,-3.8,-29.4,29.78,NW,326,4.0,4.7,27,0.00,,---,0.00,VWS V14.00,2013-02-04 08:44:00,
2013-02-04 03:45:00,-3.8,-29.4,29.78,NW,326,4.7,4.7,27,0.00,,---,0.00,VWS V14.00,2013-02-04 08:45:00,
2013-02-04 03:46:00,-3.8,-29.4,29.78,NW,326,4.0,4.7,27,0.00,,---,0.00,VWS V14.00,2013-02-04 08:46:00,
2013-02-04 03:48:00,-3.8,-29.4,29.78,NW,326,4.0,4.7,27,0.00,,---,0.00,VWS V14.00,2013-02-04 08:48:00,
2013-02-04 03:49:00,-3.8,-29.4,29.78,NW,326,4.0,4.0,27,0.00,,---,0.00,VWS V14.00,2013-02-04 08:49:00,
2013-02-04 03:50:00,-3.8,-29.4,29.78,NW,326,4.0,5.4,27,0.00,,---,0.00,VWS V14.00,2013-02-04 08:50:00,
2013-02-04 03:51:00,-3.8,-29.4,29.78,NW,326,4.0,5.4,27,0.00,,---,0.00,VWS V14.00,2013-02-04 08:51:00,
2013-02-04 03:53:00,-3.8,-29.4,29.78,NW,325,3.4,4.0,27,0.00,,---,0.00,VWS V14.00,2013-02-04 08:53:00,
2013-02-04 03:54:00,-3.8,-29.4,29.78,NW,326,4.0,4.0,27,0.00,,---,0.00,VWS V14.00,2013-02-04 08:54:00,
2013-02-04 03:56:00,-3.8,-29.4,29.78,NW,326,4.0,4.7,27,0.00,,---,0.00,VWS V14.00,2013-02-04 08:56:00,
2013-02-04 03:57:00,-3.8,-29.4,29.78,NW,325,4.7,4.7,27,0.00,,---,0.00,VWS V14.00,2013-02-04 08:57:00,
2013-02-04 03:58:00,-3.8,-29.4,29.78,NW,326,4.0,4.0,27,0.00,,---,0.00,VWS V14.00,2013-02-04 08:58:00,
2013-02-04 04:00:00,-3.8,-29.4,29.78,NW,326,4.7,4.7,27,0.00,,---,0.00,VWS V14.00,2013-02-04 09:00:00,
2013-02-04 04:01:00,-3.8,-29.4,29.78,NW,326,4.0,4.7,27,0.00,,---,0.00,VWS V14.00,2013-02-04 09:01:00,
2013-02-04 04:02:00,-3.8,-29.4,29.78,NW,326,4.0,5.4,27,0.00,,---,0.00,VWS V14.00,2013-02-04 09:02:00,
2013-02-04 04:03:00,-3.8,-29.4,29.78,NW,325,4.7,4.7,27,0.00,,---,0.00,VWS V14.00,2013-02-04 09:03:00,
2013-02-04 04:05:00,-3.8,-29.4,29.78,NW,326,4.0,4.0,27,0.00,,---,0.00,VWS V14.00,2013-02-04 09:05:00,
2013-02-04 04:06:00,-3.8,-29.4,29.78,NW,326,4.0,4.0,27,0.00,,---,0.00,VWS V14.00,2013-02-04 09:06:00,
2013-02-04 04:07:00,-3.8,-29.4,29.78,NW,325,4.7,4.7,27,0.00,,---,0.00,VWS V14.00,2013-02-04 09:07:00,
2013-02-04 04:08:00,-3.6,-29.2,29.78,NW,326,4.0,4.7,27,0.00,,---,0.00,VWS V14.00,2013-02-04 09:08:00,
2013-02-04 04:10:00,-3.6,-29.2,29.78,NW,326,4.7,4.7,27,0.00,,---,0.00,VWS V14.00,2013-02-04 09:10:00,
2013-02-04 04:11:00,-3.8,-29.4,29.78,NW,325,4.7,4.7,27,0.00,,---,0.00,VWS V14.00,2013-02-04 09:11:00,
2013-02-04 04:12:00,-3.8,-29.4,29.78,NW,325,4.0,4.7,27,0.00,,---,0.00,VWS V14.00,2013-02-04 09:12:00,
2013-02-04 04:13:00,-4.2,-29.7,29.78,NW,325,4.7,4.7,27,0.00,,---,0.00,VWS V14.00,2013-02-04 09:13:00,
2013-02-04 04:15:00,-4.4,-29.9,29.78,NW,326,4.0,4.7,27,0.00,,---,0.00,VWS V14.00,2013-02-04 09:15:00,
2013-02-04 04:16:00,-4.4,-29.9,29.78,NW,326,4.0,4.0,27,0.00,,---,0.00,VWS V14.00,2013-02-04 09:16:00,
2013-02-04 04:17:00,-4.4,-29.9,29.78,NW,326,4.7,4.7,27,0.00,,---,0.00,VWS V14.00,2013-02-04 09:17:00,
2013-02-04 04:18:00,-4.4,-29.9,29.78,NW,326,4.0,4.0,27,0.00,,---,0.00,VWS V14.00,2013-02-04 09:18:00,
2013-02-04 04:20:00,-4.4,-29.9,29.78,NW,326,4.0,4.7,27,0.00,,---,0.00,VWS V14.00,2013-02-04 09:20:00,
2013-02-04 04:21:00,-4.4,-29.9,29.78,NW,326,4.7,4.7,27,0.00,,---,0.00,VWS V14.00,2013-02-04 09:21:00,
2013-02-04 04:22:00,-4.4,-29.9,29.78,NW,326,4.0,4.0,27,0.00,,---,0.00,VWS V14.00,2013-02-04 09:22:00,
2013-02-04 04:23:00,-4.5,-30.0,29.78,NW,326,4.0,4.0,27,0.00,,---,0.00,VWS V14.00,2013-02-04 09:23:00,
2013-02-04 04:25:00,-4.7,-30.2,29.78,NW,325,4.0,4.0,27,0.00,,---,0.00,VWS V14.00,2013-02-04 09:25:00,
2013-02-04 04:26:00,-4.7,-30.2,29.78,NW,325,4.0,4.0,27,0.00,,---,0.00,VWS V14.00,2013-02-04 09:26:00,
2013-02-04 04:27:00,-4.7,-30.2,29.78,NW,326,4.7,4.7,27,0.00,,---,0.00,VWS V14.00,2013-02-04 09:27:00,
2013-02-04 04:28:00,-4.7,-30.2,29.78,NW,326,4.0,4.7,27,0.00,,---,0.00,VWS V14.00,2013-02-04 09:28:00,
2013-02-04 04:30:00,-4.7,-30.2,29.78,NW,326,4.0,4.0,27,0.00,,---,0.00,VWS V14.00,2013-02-04 09:30:00,
2013-02-04 04:31:00,-4.7,-30.2,29.78,NW,326,4.7,4.7,27,0.00,,---,0.00,VWS V14.00,2013-02-04 09:31:00,
2013-02-04 04:32:00,-4.7,-30.2,29.78,NW,325,4.0,4.7,27,0.00,,---,0.00,VWS V14.00,2013-02-04 09:32:00,
2013-02-04 04:33:00,-4.7,-30.2,29.78,NW,325,3.4,4.0,27,0.00,,---,0.00,VWS V14.00,2013-02-04 09:33:00,
2013-02-04 04:35:00,-4.7,-30.2,29.78,NW,325,4.0,4.0,27,0.00,,---,0.00,VWS V14.00,2013-02-04 09:35:00,
2013-02-04 04:36:00,-4.7,-30.2,29.78,NW,326,4.0,4.0,27,0.00,,---,0.00,VWS V14.00,2013-02-04 09:36:00,
2013-02-04 04:37:00,-4.9,-30.3,29.78,NW,325,4.0,4.0,27,0.00,,---,0.00,VWS V14.00,2013-02-04 09:37:00,
2013-02-04 04:38:00,-5.1,-30.5,29.78,NW,326,4.0,4.0,27,0.00,,---,0.00,VWS V14.00,2013-02-04 09:38:00,
2013-02-04 04:40:00,-5.4,-30.8,29.78,NW,326,3.4,4.0,27,0.00,,---,0.00,VWS V14.00,2013-02-04 09:40:00,
2013-02-04 04:41:00,-5.4,-30.8,29.78,NW,325,4.0,4.0,27,0.00,,---,0.00,VWS V14.00,2013-02-04 09:41:00,
2013-02-04 04:42:00,-5.6,-31.0,29.78,NW,326,4.0,4.7,27,0.00,,---,0.00,VWS V14.00,2013-02-04 09:42:00,
2013-02-04 04:43:00,-6.2,-31.4,29.78,NW,326,4.7,4.7,27,0.00,,---,0.00,VWS V14.00,2013-02-04 09:43:00,
2013-02-04 04:45:00,-6.3,-31.6,29.78,NW,325,4.7,4.7,27,0.00,,---,0.00,VWS V14.00,2013-02-04 09:45:00,
2013-02-04 04:46:00,-6.3,-31.6,29.78,NW,325,4.7,4.7,27,0.00,,---,0.00,VWS V14.00,2013-02-04 09:46:00,
2013-02-04 04:47:00,-6.5,-31.7,29.78,NW,326,4.0,4.7,27,0.00,,---,0.00,VWS V14.00,2013-02-04 09:47:00,
2013-02-04 04:48:00,-6.5,-31.7,29.78,NW,326,4.0,4.0,27,0.00,,---,0.00,VWS V14.00,2013-02-04 09:48:00,
2013-02-04 04:50:00,-6.5,-31.7,29.78,NW,326,4.0,4.7,27,0.00,,---,0.00,VWS V14.00,2013-02-04 09:50:00,
2013-02-04 04:51:00,-6.5,-31.7,29.78,NW,325,4.0,4.7,27,0.00,,---,0.00,VWS V14.00,2013-02-04 09:51:00,
2013-02-04 04:52:00,-6.3,-31.6,29.78,NW,326,4.0,4.0,27,0.00,,---,0.00,VWS V14.00,2013-02-04 09:52:00,
2013-02-04 04:53:00,-6.3,-31.6,29.78,NW,326,4.0,4.7,27,0.00,,---,0.00,VWS V14.00,2013-02-04 09:53:00,
2013-02-04 04:56:00,-6.0,-31.3,29.78,NW,326,4.0,4.7,27,0.00,,---,0.00,VWS V14.00,2013-02-04 09:56:00,
2013-02-04 04:57:00,-5.4,-30.8,29.78,NW,325,4.0,4.7,27,0.00,,---,0.00,VWS V14.00,2013-02-04 09:57:00,
2013-02-04 04:58:00,-5.4,-30.8,29.78,NW,325,4.7,4.7,27,0.00,,---,0.00,VWS V14.00,2013-02-04 09:58:00,
2013-02-04 05:01:00,-5.3,-30.6,29.78,NW,325,3.4,4.0,27,0.00,,---,0.00,VWS V14.00,2013-02-04 10:01:00,
2013-02-04 05:02:00,-5.6,-31.0,29.78,NW,325,0.0,4.0,27,0.00,,---,0.00,VWS V14.00,2013-02-04 10:02:00,
2013-02-04 05:04:00,-5.6,-31.0,29.78,NW,325,4.0,4.0,27,0.00,,---,0.00,VWS V14.00,2013-02-04 10:04:00,
2013-02-04 05:06:00,-5.6,-31.0,29.78,NW,326,4.0,4.7,27,0.00,,---,0.00,VWS V14.00,2013-02-04 10:06:00,
2013-02-04 05:08:00,-5.8,-31.1,29.78,NW,325,4.0,4.0,27,0.00,,---,0.00,VWS V14.00,2013-02-04 10:08:00,
2013-02-04 05:09:00,-5.8,-31.1,29.78,NW,326,4.0,4.0,27,0.00,,---,0.00,VWS V14.00,2013-02-04 10:09:00,
2013-02-04 05:11:00,-5.8,-31.1,29.78,NW,326,4.0,4.0,27,0.00,,---,0.00,VWS V14.00,2013-02-04 10:11:00,
2013-02-04 05:13:00,-6.0,-31.3,29.78,NW,325,3.4,4.0,27,0.00,,---,0.00,VWS V14.00,2013-02-04 10:13:00,
2013-02-04 05:14:00,-6.0,-31.3,29.78,NW,326,4.7,4.7,27,0.00,,---,0.00,VWS V14.00,2013-02-04 10:14:00,
2013-02-04 05:16:00,-6.2,-31.4,29.78,NW,326,4.7,4.7,27,0.00,,---,0.00,VWS V14.00,2013-02-04 10:16:00,
2013-02-04 05:18:00,-6.3,-31.6,29.78,NW,325,4.7,5.4,27,0.00,,---,0.00,VWS V14.00,2013-02-04 10:18:00,
2013-02-04 05:19:00,-6.5,-31.7,29.78,NW,326,4.7,4.7,27,0.00,,---,0.00,VWS V14.00,2013-02-04 10:19:00,
2013-02-04 05:21:00,-6.7,-31.9,29.78,NW,326,4.0,4.7,27,0.00,,---,0.00,VWS V14.00,2013-02-04 10:21:00,
2013-02-04 05:23:00,-6.9,-32.1,29.78,NW,326,4.7,4.7,27,0.00,,---,0.00,VWS V14.00,2013-02-04 10:23:00,
2013-02-04 05:24:00,-6.9,-32.1,29.78,NW,326,4.7,4.7,27,0.00,,---,0.00,VWS V14.00,2013-02-04 10:24:00,
2013-02-04 05:26:00,-6.9,-32.1,29.78,NW,325,4.0,4.0,27,0.00,,---,0.00,VWS V14.00,2013-02-04 10:26:00,
2013-02-04 05:28:00,-6.9,-32.1,29.78,NW,325,4.7,5.4,27,0.00,,---,0.00,VWS V14.00,2013-02-04 10:28:00,
2013-02-04 05:29:00,-7.1,-32.2,29.78,NW,325,4.0,5.4,27,0.00,,---,0.00,VWS V14.00,2013-02-04 10:29:00,
2013-02-04 05:31:00,-7.1,-32.2,29.78,NW,326,4.0,5.4,27,0.00,,---,0.00,VWS V14.00,2013-02-04 10:31:00,
2013-02-04 05:33:00,-6.9,-32.1,29.78,NW,326,4.0,5.4,27,0.00,,---,0.00,VWS V14.00,2013-02-04 10:33:00,
2013-02-04 05:35:00,-7.1,-32.2,29.78,NW,326,4.7,4.7,27,0.00,,---,0.00,VWS V14.00,2013-02-04 10:35:00,
2013-02-04 05:36:00,-7.4,-32.5,29.80,NW,326,4.7,6.0,27,0.00,,---,0.00,VWS V14.00,2013-02-04 10:36:00,
2013-02-04 05:38:00,-7.2,-32.4,29.80,NW,326,5.4,5.4,27,0.00,,---,0.00,VWS V14.00,2013-02-04 10:38:00,
2013-02-04 05:40:00,-7.4,-32.5,29.80,NW,325,4.0,4.0,27,0.00,,---,0.00,VWS V14.00,2013-02-04 10:40:00,
2013-02-04 05:41:00,-7.4,-32.5,29.80,NW,326,6.0,6.0,27,0.00,,---,0.00,VWS V14.00,2013-02-04 10:41:00,
2013-02-04 05:43:00,-7.1,-32.2,29.80,NW,326,4.0,4.0,27,0.00,,---,0.00,VWS V14.00,2013-02-04 10:43:00,
2013-02-04 05:45:00,-7.1,-32.2,29.80,NW,326,4.0,4.0,27,0.00,,---,0.00,VWS V14.00,2013-02-04 10:45:00,
2013-02-04 05:46:00,-7.1,-32.2,29.80,NW,326,3.4,4.0,27,0.00,,---,0.00,VWS V14.00,2013-02-04 10:46:00,
2013-02-04 05:48:00,-6.9,-32.1,29.80,NW,325,4.0,5.4,27,0.00,,---,0.00,VWS V14.00,2013-02-04 10:48:00,
2013-02-04 05:50:00,-7.1,-32.2,29.78,NW,326,5.4,6.0,27,0.00,,---,0.00,VWS V14.00,2013-02-04 10:50:00,
2013-02-04 05:51:00,-7.2,-32.4,29.78,NW,326,4.7,4.7,27,0.00,,---,0.00,VWS V14.00,2013-02-04 10:51:00,
2013-02-04 05:54:00,-7.8,-32.8,29.78,NW,326,4.7,6.0,27,0.00,,---,0.00,VWS V14.00,2013-02-04 10:54:00,
2013-02-04 05:55:00,-7.8,-32.8,29.78,NW,325,4.7,4.7,27,0.00,,---,0.00,VWS V14.00,2013-02-04 10:55:00,
2013-02-04 05:56:00,-7.8,-32.8,29.78,NW,326,4.7,4.7,27,0.00,,---,0.00,VWS V14.00,2013-02-04 10:56:00,
2013-02-04 05:57:00,-7.8,-32.8,29.78,NW,326,4.0,4.7,27,0.00,,---,0.00,VWS V14.00,2013-02-04 10:57:00,
2013-02-04 05:59:00,-8.0,-33.0,29.78,NW,325,4.7,4.7,27,0.00,,---,0.00,VWS V14.00,2013-02-04 10:59:00,
2013-02-04 06:00:00,-8.0,-33.0,29.78,NW,325,4.0,6.0,27,0.00,,---,0.00,VWS V14.00,2013-02-04 11:00:00,
2013-02-04 06:01:00,-8.1,-33.2,29.78,NW,325,4.7,4.7,27,0.00,,---,0.00,VWS V14.00,2013-02-04 11:01:00,
2013-02-04 06:02:00,-8.1,-33.2,29.78,NW,325,4.7,4.7,27,0.00,,---,0.00,VWS V14.00,2013-02-04 11:02:00,
2013-02-04 06:04:00,-8.7,-33.6,29.78,NW,326,4.7,4.7,27,0.00,,---,0.00,VWS V14.00,2013-02-04 11:04:00,
2013-02-04 06:05:00,-8.7,-33.6,29.80,NW,325,5.4,5.4,27,0.00,,---,0.00,VWS V14.00,2013-02-04 11:05:00,
2013-02-04 06:06:00,-8.9,-33.8,29.80,NW,325,4.7,6.0,27,0.00,,---,0.00,VWS V14.00,2013-02-04 11:06:00,
2013-02-04 06:07:00,-9.0,-34.0,29.80,NW,325,4.7,6.0,27,0.00,,---,0.00,VWS V14.00,2013-02-04 11:07:00,
2013-02-04 06:09:00,-9.0,-34.0,29.80,NW,325,4.0,5.4,27,0.00,,---,0.00,VWS V14.00,2013-02-04 11:09:00,
2013-02-04 06:10:00,-9.2,-34.1,29.80,NW,326,4.7,5.4,27,0.00,,---,0.00,VWS V14.00,2013-02-04 11:10:00,
2013-02-04 06:12:00,-9.2,-34.1,29.80,NW,326,4.7,5.4,27,0.00,,---,0.00,VWS V14.00,2013-02-04 11:12:00,
2013-02-04 06:14:00,-8.9,-33.8,29.80,NW,325,4.7,6.0,27,0.00,,---,0.00,VWS V14.00,2013-02-04 11:14:00,
2013-02-04 06:15:00,-8.9,-33.8,29.80,NW,326,4.7,6.0,27,0.00,,---,0.00,VWS V14.00,2013-02-04 11:15:00,
2013-02-04 06:17:00,-8.1,-33.2,29.80,NW,325,6.7,7.4,27,0.00,,---,0.00,VWS V14.00,2013-02-04 11:17:00,
2013-02-04 06:19:00,-7.4,-32.5,29.80,NW,326,4.7,5.4,27,0.00,,---,0.00,VWS V14.00,2013-02-04 11:19:00,
2013-02-04 06:20:00,-7.4,-32.5,29.80,NW,326,7.4,7.4,27,0.00,,---,0.00,VWS V14.00,2013-02-04 11:20:00,
2013-02-04 06:22:00,-7.4,-32.5,29.80,NW,325,5.4,6.7,27,0.00,,---,0.00,VWS V14.00,2013-02-04 11:22:00,
2013-02-04 06:24:00,-7.2,-32.4,29.80,NW,326,5.4,6.0,27,0.00,,---,0.00,VWS V14.00,2013-02-04 11:24:00,
2013-02-04 06:26:00,-7.4,-32.5,29.80,NW,326,4.7,6.0,27,0.00,,---,0.00,VWS V14.00,2013-02-04 11:26:00,
2013-02-04 06:27:00,-7.2,-32.4,29.80,NW,326,8.1,8.1,27,0.00,,---,0.00,VWS V14.00,2013-02-04 11:27:00,
2013-02-04 06:30:00,-7.6,-32.7,29.80,NW,325,4.0,7.4,27,0.00,,---,0.00,VWS V14.00,2013-02-04 11:30:00,
2013-02-04 06:31:00,-7.6,-32.7,29.80,NW,326,5.4,6.0,27,0.00,,---,0.00,VWS V14.00,2013-02-04 11:31:00,
2013-02-04 06:32:00,-7.4,-32.5,29.80,NW,326,4.0,4.0,27,0.00,,---,0.00,VWS V14.00,2013-02-04 11:32:00,
2013-02-04 06:35:00,-7.6,-32.7,29.80,NW,326,0.0,6.0,27,0.00,,---,0.00,VWS V14.00,2013-02-04 11:35:00,
2013-02-04 06:36:00,-7.4,-32.5,29.80,NW,326,4.7,5.4,27,0.00,,---,0.00,VWS V14.00,2013-02-04 11:36:00,
2013-02-04 06:37:00,-7.4,-32.5,29.80,NW,325,0.0,0.0,27,0.00,,---,0.00,VWS V14.00,2013-02-04 11:37:00,
2013-02-04 06:40:00,-7.4,-32.5,29.80,NW,326,0.0,0.0,27,0.00,,---,0.00,VWS V14.00,2013-02-04 11:40:00,
2013-02-04 06:41:00,-7.4,-32.5,29.80,NW,325,0.0,0.0,27,0.00,,---,0.00,VWS V14.00,2013-02-04 11:41:00,
2013-02-04 06:42:00,-7.6,-32.7,29.80,NW,326,0.0,0.0,27,0.00,,---,0.00,VWS V14.00,2013-02-04 11:42:00,
2013-02-04 06:45:00,-7.6,-32.7,29.80,NW,326,0.0,0.0,27,0.00,,---,0.00,VWS V14.00,2013-02-04 11:45:00,
2013-02-04 06:46:00,-7.6,-32.7,29.80,NW,326,0.0,0.0,27,0.00,,---,0.00,VWS V14.00,2013-02-04 11:46:00,
2013-02-04 06:47:00,-7.2,-32.4,29.80,NW,326,0.0,0.0,27,0.00,,---,0.00,VWS V14.00,2013-02-04 11:47:00,
2013-02-04 06:48:00,-7.2,-32.4,29.80,NW,325,0.0,0.0,27,0.00,,---,0.00,VWS V14.00,2013-02-04 11:48:00,
2013-02-04 06:50:00,-7.1,-32.2,29.80,NW,326,0.0,0.0,27,0.00,,---,0.00,VWS V14.00,2013-02-04 11:50:00,
2013-02-04 06:51:00,-7.2,-32.4,29.80,NW,325,0.0,0.0,27,0.00,,---,0.00,VWS V14.00,2013-02-04 11:51:00,
2013-02-04 06:53:00,-6.9,-32.1,29.80,NW,326,0.0,0.0,27,0.00,,---,0.00,VWS V14.00,2013-02-04 11:53:00,
2013-02-04 06:55:00,-6.9,-32.1,29.80,NW,326,0.0,0.0,27,0.00,,---,0.00,VWS V14.00,2013-02-04 11:55:00,
2013-02-04 06:56:00,-7.1,-32.2,29.80,NW,325,0.0,0.0,27,0.00,,---,0.00,VWS V14.00,2013-02-04 11:56:00,
2013-02-04 06:58:00,-7.1,-32.2,29.80,NW,326,0.0,0.0,27,0.00,,---,0.00,VWS V14.00,2013-02-04 11:58:00,
2013-02-04 07:00:00,-7.1,-32.2,29.80,NW,326,0.0,0.0,27,0.00,,---,0.00,VWS V14.00,2013-02-04 12:00:00,
2013-02-04 07:01:00,-6.9,-32.1,29.80,NW,325,0.0,0.0,27,0.00,,---,0.00,VWS V14.00,2013-02-04 12:01:00,
2013-02-04 07:03:00,-7.1,-32.2,29.80,NW,326,0.0,0.0,27,0.00,,---,0.00,VWS V14.00,2013-02-04 12:03:00,
2013-02-04 07:05:00,-6.9,-32.1,29.80,NW,325,0.0,0.0,27,0.00,,---,0.00,VWS V14.00,2013-02-04 12:05:00,
2013-02-04 07:06:00,-6.7,-31.9,29.80,NW,326,0.0,0.0,27,0.00,,---,0.00,VWS V14.00,2013-02-04 12:06:00,
2013-02-04 07:08:00,-6.7,-31.9,29.80,NW,325,0.0,0.0,27,0.00,,---,0.00,VWS V14.00,2013-02-04 12:08:00,
2013-02-04 07:10:00,-6.7,-31.9,29.80,NW,326,0.0,0.0,27,0.00,,---,0.00,VWS V14.00,2013-02-04 12:10:00,
2013-02-04 07:11:00,-6.7,-31.9,29.80,NW,326,0.0,0.0,27,0.00,,---,0.00,VWS V14.00,2013-02-04 12:11:00,
2013-02-04 07:13:00,-6.7,-31.9,29.80,NW,326,0.0,0.0,27,0.00,,---,0.00,VWS V14.00,2013-02-04 12:13:00,
2013-02-04 07:15:00,-6.7,-31.9,29.80,NW,326,0.0,0.0,27,0.00,,---,0.00,VWS V14.00,2013-02-04 12:15:00,
2013-02-04 07:16:00,-6.7,-31.9,29.80,NW,326,0.0,0.0,27,0.00,,---,0.00,VWS V14.00,2013-02-04 12:16:00,
2013-02-04 07:18:00,-6.5,-31.7,29.80,NW,326,0.0,0.0,27,0.00,,---,0.00,VWS V14.00,2013-02-04 12:18:00,
2013-02-04 07:20:00,-6.5,-31.7,29.80,NW,326,0.0,0.0,27,0.00,,---,0.00,VWS V14.00,2013-02-04 12:20:00,
2013-02-04 07:21:00,-6.5,-31.7,29.80,NW,326,0.0,0.0,27,0.00,,---,0.00,VWS V14.00,2013-02-04 12:21:00,
2013-02-04 07:23:00,-6.5,-31.7,29.80,NW,325,0.0,0.0,27,0.00,,---,0.00,VWS V14.00,2013-02-04 12:23:00,
2013-02-04 07:25:00,-6.7,-31.9,29.80,NW,326,0.0,0.0,27,0.00,,---,0.00,VWS V14.00,2013-02-04 12:25:00,
2013-02-04 07:26:00,-6.7,-31.9,29.80,NW,325,0.0,0.0,27,0.00,,---,0.00,VWS V14.00,2013-02-04 12:26:00,
2013-02-04 07:28:00,-6.9,-32.1,29.80,NW,325,0.0,0.0,27,0.00,,---,0.00,VWS V14.00,2013-02-04 12:28:00,
2013-02-04 07:30:00,-6.9,-32.1,29.80,NW,325,0.0,0.0,27,0.00,,---,0.00,VWS V14.00,2013-02-04 12:30:00,
2013-02-04 07:31:00,-6.9,-32.1,29.80,NW,326,0.0,0.0,27,0.00,,---,0.00,VWS V14.00,2013-02-04 12:31:00,
2013-02-04 07:33:00,-6.7,-31.9,29.80,NW,326,0.0,0.0,27,0.00,,---,0.00,VWS V14.00,2013-02-04 12:33:00,
2013-02-04 07:35:00,-6.5,-31.7,29.80,NW,325,0.0,0.0,27,0.00,,---,0.00,VWS V14.00,2013-02-04 12:35:00,
2013-02-04 07:37:00,-6.7,-31.9,29.80,NW,325,0.0,0.0,27,0.00,,---,0.00,VWS V14.00,2013-02-04 12:37:00,
2013-02-04 07:38:00,-6.7,-31.9,29.80,NW,326,0.0,0.0,27,0.00,,---,0.00,VWS V14.00,2013-02-04 12:38:00,
2013-02-04 07:40:00,-6.5,-31.7,29.80,NW,326,0.0,0.0,27,0.00,,---,0.00,VWS V14.00,2013-02-04 12:40:00,
2013-02-04 07:42:00,-6.5,-31.7,29.80,NW,326,0.0,0.0,27,0.00,,---,0.00,VWS V14.00,2013-02-04 12:42:00,
2013-02-04 07:43:00,-6.5,-31.7,29.80,NW,326,0.0,0.0,27,0.00,,---,0.00,VWS V14.00,2013-02-04 12:43:00,
2013-02-04 07:44:00,-6.5,-31.7,29.80,NW,326,0.0,0.0,27,0.00,,---,0.00,VWS V14.00,2013-02-04 12:44:00,
2013-02-04 07:45:00,-6.9,-32.1,29.80,NW,326,0.0,0.0,27,0.00,,---,0.00,VWS V14.00,2013-02-04 12:45:00,
2013-02-04 07:47:00,-6.7,-31.9,29.80,NW,326,0.0,0.0,27,0.00,,---,0.00,VWS V14.00,2013-02-04 12:47:00,
2013-02-04 07:48:00,-6.9,-32.1,29.80,NW,326,0.0,0.0,27,0.00,,---,0.00,VWS V14.00,2013-02-04 12:48:00,
2013-02-04 07:49:00,-6.9,-32.1,29.80,NW,325,0.0,0.0,27,0.00,,---,0.00,VWS V14.00,2013-02-04 12:49:00,
2013-02-04 07:50:00,-6.9,-32.1,29.80,NW,326,0.0,0.0,27,0.00,,---,0.00,VWS V14.00,2013-02-04 12:50:00,
2013-02-04 07:52:00,-7.1,-32.2,29.80,NW,326,0.0,0.0,27,0.00,,---,0.00,VWS V14.00,2013-02-04 12:52:00,
2013-02-04 07:53:00,-7.2,-32.4,29.80,NW,326,0.0,0.0,27,0.00,,---,0.00,VWS V14.00,2013-02-04 12:53:00,
2013-02-04 07:54:00,-7.2,-32.4,29.80,NW,325,0.0,0.0,27,0.00,,---,0.00,VWS V14.00,2013-02-04 12:54:00,
2013-02-04 07:55:00,-7.2,-32.4,29.80,NW,326,0.0,0.0,27,0.00,,---,0.00,VWS V14.00,2013-02-04 12:55:00,
2013-02-04 07:57:00,-7.4,-32.5,29.80,NW,325,0.0,0.0,27,0.00,,---,0.00,VWS V14.00,2013-02-04 12:57:00,
2013-02-04 07:58:00,-7.4,-32.5,29.80,NW,325,0.0,0.0,27,0.00,,---,0.00,VWS V14.00,2013-02-04 12:58:00,
2013-02-04 07:59:00,-7.4,-32.5,29.80,NW,325,0.0,0.0,27,0.00,,---,0.00,VWS V14.00,2013-02-04 12:59:00,
2013-02-04 08:00:00,-7.6,-32.7,29.80,NW,326,0.0,0.0,27,0.00,,---,0.00,VWS V14.00,2013-02-04 13:00:00,
2013-02-04 08:02:00,-7.6,-32.7,29.80,NW,326,0.0,0.0,27,0.00,,---,0.00,VWS V14.00,2013-02-04 13:02:00,
2013-02-04 08:03:00,-7.6,-32.7,29.80,NW,326,0.0,0.0,27,0.00,,---,0.00,VWS V14.00,2013-02-04 13:03:00,
2013-02-04 08:04:00,-7.6,-32.7,29.80,NW,325,0.0,0.0,27,0.00,,---,0.00,VWS V14.00,2013-02-04 13:04:00,
2013-02-04 08:05:00,-7.4,-32.5,29.80,NW,326,0.0,0.0,27,0.00,,---,0.00,VWS V14.00,2013-02-04 13:05:00,
2013-02-04 08:07:00,-7.4,-32.5,29.80,NW,325,0.0,0.0,27,0.00,,---,0.00,VWS V14.00,2013-02-04 13:07:00,
2013-02-04 08:09:00,-7.4,-32.5,29.80,NW,326,0.0,0.0,27,0.00,,---,0.00,VWS V14.00,2013-02-04 13:09:00,
2013-02-04 08:11:00,-7.2,-32.4,29.80,NW,326,0.0,0.0,27,0.00,,---,0.00,VWS V14.00,2013-02-04 13:11:00,
2013-02-04 08:13:00,-7.4,-32.5,29.80,NW,326,0.0,0.0,27,0.00,,---,0.00,VWS V14.00,2013-02-04 13:13:00,
2013-02-04 08:14:00,-7.6,-32.7,29.80,NW,326,0.0,0.0,27,0.00,,---,0.00,VWS V14.00,2013-02-04 13:14:00,
2013-02-04 08:16:00,-7.6,-32.7,29.80,NW,326,0.0,0.0,27,0.00,,---,0.00,VWS V14.00,2013-02-04 13:16:00,
2013-02-04 08:18:00,-7.6,-32.7,29.80,NW,326,0.0,0.0,27,0.00,,---,0.00,VWS V14.00,2013-02-04 13:18:00,
2013-02-04 08:19:00,-7.6,-32.7,29.80,NW,326,0.0,0.0,27,0.00,,---,0.00,VWS V14.00,2013-02-04 13:19:00,
2013-02-04 08:21:00,-7.6,-32.7,29.80,NW,326,0.0,0.0,27,0.00,,---,0.00,VWS V14.00,2013-02-04 13:21:00,
2013-02-04 08:23:00,-7.4,-32.5,29.80,NW,326,0.0,0.0,27,0.00,,---,0.00,VWS V14.00,2013-02-04 13:23:00,
2013-02-04 08:24:00,-7.4,-32.5,29.80,NW,325,0.0,0.0,27,0.00,,---,0.00,VWS V14.00,2013-02-04 13:24:00,
2013-02-04 08:26:00,-7.2,-32.4,29.80,NW,326,0.0,0.0,27,0.00,,---,0.00,VWS V14.00,2013-02-04 13:26:00,
2013-02-04 08:28:00,-6.5,-31.7,29.80,NW,326,0.0,0.0,27,0.00,,---,0.00,VWS V14.00,2013-02-04 13:28:00,
2013-02-04 08:29:00,-6.5,-31.7,29.80,NW,325,0.0,0.0,27,0.00,,---,0.00,VWS V14.00,2013-02-04 13:29:00,
2013-02-04 08:31:00,-6.2,-31.4,29.80,NW,325,0.0,0.0,27,0.00,,---,0.00,VWS V14.00,2013-02-04 13:31:00,
2013-02-04 08:34:00,-6.0,-31.3,29.80,NW,326,0.0,0.0,27,0.00,,---,0.00,VWS V14.00,2013-02-04 13:34:00,
2013-02-04 08:36:00,-6.0,-31.3,29.80,NW,326,0.0,0.0,27,0.00,,---,0.00,VWS V14.00,2013-02-04 13:36:00,
2013-02-04 08:39:00,-5.8,-31.1,29.80,NW,326,0.0,0.0,27,0.00,,---,0.00,VWS V14.00,2013-02-04 13:39:00,
2013-02-04 08:40:00,-6.0,-31.3,29.80,NW,326,0.0,0.0,27,0.00,,---,0.00,VWS V14.00,2013-02-04 13:40:00,
2013-02-04 08:41:00,-6.2,-31.4,29.80,NW,326,0.0,0.0,27,0.00,,---,0.00,VWS V14.00,2013-02-04 13:41:00,
2013-02-04 08:44:00,-6.3,-31.6,29.80,NW,326,0.0,0.0,27,0.00,,---,0.00,VWS V14.00,2013-02-04 13:44:00,
2013-02-04 08:45:00,-6.3,-31.6,29.80,NW,325,0.0,0.0,27,0.00,,---,0.00,VWS V14.00,2013-02-04 13:45:00,
2013-02-04 08:46:00,-6.2,-31.4,29.80,NW,326,0.0,0.0,27,0.00,,---,0.00,VWS V14.00,2013-02-04 13:46:00,
2013-02-04 08:49:00,-5.8,-31.1,29.80,NW,326,0.0,0.0,27,0.00,,---,0.00,VWS V14.00,2013-02-04 13:49:00,
2013-02-04 08:50:00,-5.6,-31.0,29.80,NW,326,0.0,0.0,27,0.00,,---,0.00,VWS V14.00,2013-02-04 13:50:00,
2013-02-04 08:51:00,-5.4,-30.8,29.80,NW,326,0.0,0.0,27,0.00,,---,0.00,VWS V14.00,2013-02-04 13:51:00,
2013-02-04 08:54:00,-5.4,-30.8,29.80,NW,326,0.0,0.0,27,0.00,,---,0.00,VWS V14.00,2013-02-04 13:54:00,
2013-02-04 08:55:00,-5.4,-30.8,29.80,NW,326,0.0,0.0,27,0.00,,---,0.00,VWS V14.00,2013-02-04 13:55:00,
2013-02-04 08:56:00,-5.3,-30.6,29.80,NW,326,0.0,0.0,27,0.00,,---,0.00,VWS V14.00,2013-02-04 13:56:00,
2013-02-04 08:59:00,-5.3,-30.6,29.80,NW,325,0.0,0.0,27,0.00,,---,0.00,VWS V14.00,2013-02-04 13:59:00,
2013-02-04 09:00:00,-5.3,-30.6,29.80,NW,326,0.0,0.0,27,0.00,,---,0.00,VWS V14.00,2013-02-04 14:00:00,
2013-02-04 09:01:00,-5.3,-30.6,29.80,NW,326,0.0,0.0,27,0.00,,---,0.00,VWS V14.00,2013-02-04 14:01:00,
2013-02-04 09:04:00,-5.3,-30.6,29.80,NW,326,0.0,0.0,27,0.00,,---,0.00,VWS V14.00,2013-02-04 14:04:00,
2013-02-04 09:05:00,-5.1,-30.5,29.80,NW,326,0.0,0.0,27,0.00,,---,0.00,VWS V14.00,2013-02-04 14:05:00,
2013-02-04 09:06:00,-5.1,-30.5,29.80,NW,325,0.0,0.0,27,0.00,,---,0.00,VWS V14.00,2013-02-04 14:06:00,
2013-02-04 09:09:00,-4.4,-29.9,29.80,NW,326,0.0,0.0,27,0.00,,---,0.00,VWS V14.00,2013-02-04 14:09:00,
2013-02-04 09:10:00,-4.4,-29.9,29.80,NW,326,0.0,0.0,27,0.00,,---,0.00,VWS V14.00,2013-02-04 14:10:00,
2013-02-04 09:11:00,-4.2,-29.7,29.80,NW,326,0.0,0.0,27,0.00,,---,0.00,VWS V14.00,2013-02-04 14:11:00,
2013-02-04 09:14:00,-4.0,-29.5,29.80,NW,325,0.0,0.0,27,0.00,,---,0.00,VWS V14.00,2013-02-04 14:14:00,
2013-02-04 09:15:00,-4.0,-29.5,29.80,NW,326,0.0,0.0,27,0.00,,---,0.00,VWS V14.00,2013-02-04 14:15:00,
2013-02-04 09:16:00,-4.0,-29.5,29.80,NW,326,0.0,0.0,27,0.00,,---,0.00,VWS V14.00,2013-02-04 14:16:00,
2013-02-04 09:19:00,-3.8,-29.4,29.80,NW,326,0.0,0.0,27,0.00,,---,0.00,VWS V14.00,2013-02-04 14:19:00,
2013-02-04 09:20:00,-3.8,-29.4,29.80,NW,325,0.0,0.0,27,0.00,,---,0.00,VWS V14.00,2013-02-04 14:20:00,
2013-02-04 09:21:00,-3.8,-29.4,29.80,NW,326,0.0,0.0,27,0.00,,---,0.00,VWS V14.00,2013-02-04 14:21:00,
2013-02-04 09:22:00,-3.8,-29.4,29.80,NW,326,0.0,0.0,27,0.00,,---,0.00,VWS V14.00,2013-02-04 14:22:00,
2013-02-04 09:24:00,-3.8,-29.4,29.80,NW,326,0.0,0.0,27,0.00,,---,0.00,VWS V14.00,2013-02-04 14:24:00,
2013-02-04 09:25:00,-3.8,-29.4,29.80,NW,325,0.0,0.0,27,0.00,,---,0.00,VWS V14.00,2013-02-04 14:25:00,
2013-02-04 09:26:00,-3.5,-29.1,29.80,NW,325,0.0,0.0,27,0.00,,---,0.00,VWS V14.00,2013-02-04 14:26:00,
2013-02-04 09:27:00,-3.5,-29.1,29.80,NW,326,0.0,0.0,27,0.00,,---,0.00,VWS V14.00,2013-02-04 14:27:00,
2013-02-04 09:29:00,-3.5,-29.1,29.80,NW,325,0.0,0.0,27,0.00,,---,0.00,VWS V14.00,2013-02-04 14:29:00,
2013-02-04 09:30:00,-3.5,-29.1,29.80,NW,325,0.0,0.0,27,0.00,,---,0.00,VWS V14.00,2013-02-04 14:30:00,
2013-02-04 09:31:00,-3.5,-29.1,29.80,NW,325,0.0,0.0,27,0.00,,---,0.00,VWS V14.00,2013-02-04 14:31:00,
2013-02-04 09:32:00,-3.6,-29.2,29.80,NW,326,0.0,0.0,27,0.00,,---,0.00,VWS V14.00,2013-02-04 14:32:00,
2013-02-04 09:35:00,-3.5,-29.1,29.80,NW,326,0.0,0.0,27,0.00,,---,0.00,VWS V14.00,2013-02-04 14:35:00,
2013-02-04 09:36:00,-3.5,-29.1,29.80,NW,326,0.0,0.0,27,0.00,,---,0.00,VWS V14.00,2013-02-04 14:36:00,
2013-02-04 09:37:00,-2.9,-28.6,29.80,NW,325,0.0,0.0,27,0.00,,---,0.00,VWS V14.00,2013-02-04 14:37:00,
2013-02-04 09:40:00,-1.7,-27.5,29.80,NW,325,0.0,0.0,27,0.00,,---,0.00,VWS V14.00,2013-02-04 14:40:00,
2013-02-04 09:41:00,-1.1,-27.0,29.80,NW,325,0.0,0.0,27,0.00,,---,0.00,VWS V14.00,2013-02-04 14:41:00,
2013-02-04 09:42:00,-1.1,-27.0,29.80,NW,325,0.0,0.0,27,0.00,,---,0.00,VWS V14.00,2013-02-04 14:42:00,
2013-02-04 09:45:00,-0.6,-26.5,29.80,NW,326,0.0,0.0,27,0.00,,---,0.00,VWS V14.00,2013-02-04 14:45:00,
2013-02-04 09:46:00,-0.4,-26.4,29.80,NW,325,0.0,0.0,27,0.00,,---,0.00,VWS V14.00,2013-02-04 14:46:00,
2013-02-04 09:47:00,-0.2,-26.2,29.80,NW,325,0.0,0.0,27,0.00,,---,0.00,VWS V14.00,2013-02-04 14:47:00,
2013-02-04 09:50:00,-0.6,-26.5,29.80,NW,326,0.0,0.0,27,0.00,,---,0.00,VWS V14.00,2013-02-04 14:50:00,
2013-02-04 09:51:00,-0.6,-26.5,29.80,NW,325,0.0,0.0,27,0.00,,---,0.00,VWS V14.00,2013-02-04 14:51:00,
2013-02-04 09:52:00,-0.6,-26.5,29.80,NW,325,0.0,0.0,27,0.00,,---,0.00,VWS V14.00,2013-02-04 14:52:00,
2013-02-04 09:55:00,-0.6,-26.5,29.80,NW,325,0.0,0.0,27,0.00,,---,0.00,VWS V14.00,2013-02-04 14:55:00,
2013-02-04 09:56:00,-0.6,-26.5,29.80,NW,325,0.0,0.0,27,0.00,,---,0.00,VWS V14.00,2013-02-04 14:56:00,
2013-02-04 09:57:00,-0.2,-26.2,29.80,NW,326,0.0,0.0,27,0.00,,---,0.00,VWS V14.00,2013-02-04 14:57:00,
2013-02-04 10:00:00,0.3,-25.8,29.80,NW,326,0.0,0.0,27,0.00,,---,0.00,VWS V14.00,2013-02-04 15:00:00,
2013-02-04 10:01:00,0.5,-25.6,29.80,NW,326,0.0,0.0,27,0.00,,---,0.00,VWS V14.00,2013-02-04 15:01:00,
2013-02-04 10:02:00,0.7,-25.4,29.80,NW,326,0.0,0.0,27,0.00,,---,0.00,VWS V14.00,2013-02-04 15:02:00,
2013-02-04 10:05:00,1.2,-25.0,29.80,NW,326,0.0,0.0,27,0.00,,---,0.00,VWS V14.00,2013-02-04 15:05:00,
2013-02-04 10:06:00,1.2,-25.0,29.80,NW,325,0.0,0.0,27,0.00,,---,0.00,VWS V14.00,2013-02-04 15:06:00,
2013-02-04 10:07:00,1.0,-25.1,29.80,NW,326,0.0,0.0,27,0.00,,---,0.00,VWS V14.00,2013-02-04 15:07:00,
2013-02-04 10:10:00,0.7,-25.4,29.80,NW,325,0.0,0.0,27,0.00,,---,0.00,VWS V14.00,2013-02-04 15:10:00,
2013-02-04 10:11:00,0.5,-25.6,29.80,NW,325,0.0,0.0,27,0.00,,---,0.00,VWS V14.00,2013-02-04 15:11:00,
2013-02-04 10:12:00,0.3,-25.8,29.80,NW,326,0.0,0.0,27,0.00,,---,0.00,VWS V14.00,2013-02-04 15:12:00,
2013-02-04 10:15:00,0.0,-26.1,29.80,NW,325,0.0,0.0,27,0.00,,---,0.00,VWS V14.00,2013-02-04 15:15:00,
2013-02-04 10:16:00,0.0,-26.1,29.80,NW,325,0.0,0.0,27,0.00,,---,0.00,VWS V14.00,2013-02-04 15:16:00,
2013-02-04 10:17:00,0.0,-26.1,29.80,NW,325,0.0,0.0,27,0.00,,---,0.00,VWS V14.00,2013-02-04 15:17:00,
2013-02-04 10:20:00,0.3,-25.8,29.80,NW,326,0.0,0.0,27,0.00,,---,0.00,VWS V14.00,2013-02-04 15:20:00,
2013-02-04 10:21:00,0.7,-25.4,29.80,NW,326,0.0,0.0,27,0.00,,---,0.00,VWS V14.00,2013-02-04 15:21:00,
2013-02-04 10:22:00,1.0,-25.1,29.80,NW,326,0.0,0.0,27,0.00,,---,0.00,VWS V14.00,2013-02-04 15:22:00,
2013-02-04 10:23:00,1.4,-24.8,29.80,NW,325,0.0,0.0,27,0.00,,---,0.00,VWS V14.00,2013-02-04 15:23:00,
2013-02-04 10:25:00,1.9,-24.3,29.80,NW,326,0.0,0.0,27,0.00,,---,0.00,VWS V14.00,2013-02-04 15:25:00,
2013-02-04 10:26:00,2.1,-24.2,29.80,NW,326,0.0,0.0,27,0.00,,---,0.00,VWS V14.00,2013-02-04 15:26:00,
2013-02-04 10:27:00,2.5,-23.9,29.80,NW,325,0.0,0.0,27,0.00,,---,0.00,VWS V14.00,2013-02-04 15:27:00,
2013-02-04 10:28:00,2.5,-23.9,29.80,NW,326,0.0,0.0,27,0.00,,---,0.00,VWS V14.00,2013-02-04 15:28:00,
2013-02-04 10:30:00,2.5,-23.9,29.80,NW,326,0.0,0.0,27,0.00,,---,0.00,VWS V14.00,2013-02-04 15:30:00,
2013-02-04 10:31:00,2.8,-23.5,29.80,NW,326,0.0,0.0,27,0.00,,---,0.00,VWS V14.00,2013-02-04 15:31:00,
2013-02-04 10:32:00,3.2,-23.2,29.80,NW,325,0.0,0.0,27,0.00,,---,0.00,VWS V14.00,2013-02-04 15:32:00,
2013-02-04 10:33:00,3.4,-23.1,29.80,NW,325,0.0,0.0,27,0.00,,---,0.00,VWS V14.00,2013-02-04 15:33:00,
2013-02-04 10:35:00,3.2,-23.2,29.80,NW,325,0.0,0.0,27,0.00,,---,0.00,VWS V14.00,2013-02-04 15:35:00,
2013-02-04 10:36:00,3.4,-23.1,29.80,NW,326,0.0,0.0,27,0.00,,---,0.00,VWS V14.00,2013-02-04 15:36:00,
2013-02-04 10:37:00,2.8,-23.5,29.80,NW,325,0.0,0.0,27,0.00,,---,0.00,VWS V14.00,2013-02-04 15:37:00,
2013-02-04 10:38:00,3.0,-23.4,29.80,NW,326,0.0,0.0,27,0.00,,---,0.00,VWS V14.00,2013-02-04 15:38:00,
2013-02-04 10:40:00,3.7,-22.8,29.80,NW,325,0.0,0.0,27,0.00,,---,0.00,VWS V14.00,2013-02-04 15:40:00,
2013-02-04 10:41:00,4.3,-22.3,29.80,NW,326,0.0,0.0,27,0.00,,---,0.00,VWS V14.00,2013-02-04 15:41:00,
2013-02-04 10:42:00,5.0,-21.7,29.80,NW,326,0.0,0.0,27,0.00,,---,0.00,VWS V14.00,2013-02-04 15:42:00,
2013-02-04 10:43:00,5.4,-21.4,29.80,NW,326,0.0,0.0,27,0.00,,---,0.00,VWS V14.00,2013-02-04 15:43:00,
2013-02-04 10:45:00,6.3,-20.6,29.80,NW,325,0.0,0.0,27,0.00,,---,0.00,VWS V14.00,2013-02-04 15:45:00,
2013-02-04 10:46:00,6.6,-20.2,29.80,NW,325,0.0,0.0,27,0.00,,---,0.00,VWS V14.00,2013-02-04 15:46:00,
2013-02-04 10:47:00,6.1,-20.7,29.80,NW,326,0.0,0.0,27,0.00,,---,0.00,VWS V14.00,2013-02-04 15:47:00,
2013-02-04 10:49:00,5.7,-21.0,29.80,NW,325,0.0,0.0,27,0.00,,---,0.00,VWS V14.00,2013-02-04 15:49:00,
2013-02-04 10:51:00,5.4,-21.4,29.80,NW,326,0.0,0.0,27,0.00,,---,0.00,VWS V14.00,2013-02-04 15:51:00,
2013-02-04 10:52:00,4.8,-21.8,29.80,NW,325,0.0,0.0,27,0.00,,---,0.00,VWS V14.00,2013-02-04 15:52:00,
2013-02-04 10:54:00,4.5,-22.1,29.80,NW,325,0.0,0.0,27,0.00,,---,0.00,VWS V14.00,2013-02-04 15:54:00,
2013-02-04 10:56:00,4.6,-22.0,29.80,NW,325,0.0,0.0,27,0.00,,---,0.00,VWS V14.00,2013-02-04 15:56:00,
2013-02-04 10:58:00,4.6,-22.0,29.80,NW,325,0.0,0.0,27,0.00,,---,0.00,VWS V14.00,2013-02-04 15:58:00,
2013-02-04 10:59:00,4.5,-22.1,29.80,NW,325,0.0,4.7,27,0.00,,---,0.00,VWS V14.00,2013-02-04 15:59:00,
2013-02-04 11:01:00,4.5,-22.1,29.80,NW,326,0.0,0.0,27,0.00,,---,0.00,VWS V14.00,2013-02-04 16:01:00,
2013-02-04 11:03:00,4.6,-22.0,29.80,NW,325,0.0,0.0,27,0.00,,---,0.00,VWS V14.00,2013-02-04 16:03:00,
2013-02-04 11:04:00,5.0,-21.7,29.80,NW,325,0.0,0.0,27,0.00,,---,0.00,VWS V14.00,2013-02-04 16:04:00,
2013-02-04 11:06:00,6.3,-20.6,29.80,NW,326,0.0,0.0,27,0.00,,---,0.00,VWS V14.00,2013-02-04 16:06:00,
2013-02-04 11:07:00,6.3,-20.6,29.80,NW,326,0.0,0.0,27,0.00,,---,0.00,VWS V14.00,2013-02-04 16:07:00,
2013-02-04 11:08:00,6.4,-20.4,29.80,NW,326,0.0,0.0,27,0.00,,---,0.00,VWS V14.00,2013-02-04 16:08:00,
2013-02-04 11:09:00,6.8,-20.1,29.80,NW,325,0.0,0.0,27,0.00,,---,0.00,VWS V14.00,2013-02-04 16:09:00,
2013-02-04 11:11:00,6.4,-20.4,29.80,NW,326,0.0,0.0,27,0.00,,---,0.00,VWS V14.00,2013-02-04 16:11:00,
2013-02-04 11:12:00,6.4,-20.4,29.80,NW,326,0.0,0.0,27,0.00,,---,0.00,VWS V14.00,2013-02-04 16:12:00,
2013-02-04 11:13:00,6.3,-20.6,29.80,NW,325,0.0,0.0,27,0.00,,---,0.00,VWS V14.00,2013-02-04 16:13:00,
2013-02-04 11:14:00,5.9,-20.9,29.80,NW,326,0.0,0.0,27,0.00,,---,0.00,VWS V14.00,2013-02-04 16:14:00,
2013-02-04 11:16:00,5.7,-21.0,29.80,NW,325,0.0,0.0,27,0.00,,---,0.00,VWS V14.00,2013-02-04 16:16:00,
2013-02-04 11:17:00,5.7,-21.0,29.80,NW,325,0.0,0.0,27,0.00,,---,0.00,VWS V14.00,2013-02-04 16:17:00,
2013-02-04 11:18:00,5.4,-21.4,29.80,NW,325,0.0,0.0,27,0.00,,---,0.00,VWS V14.00,2013-02-04 16:18:00,
2013-02-04 11:19:00,5.4,-21.4,29.80,NW,325,0.0,0.0,27,0.00,,---,0.00,VWS V14.00,2013-02-04 16:19:00,
2013-02-04 11:22:00,5.4,-21.4,29.80,NW,326,5.4,5.4,27,0.00,,---,0.00,VWS V14.00,2013-02-04 16:22:00,
2013-02-04 11:24:00,5.0,-21.7,29.80,NW,325,4.7,6.0,27,0.00,,---,0.00,VWS V14.00,2013-02-04 16:24:00,
2013-02-04 11:27:00,5.5,-21.2,29.80,NW,326,5.4,5.4,27,0.00,,---,0.00,VWS V14.00,2013-02-04 16:27:00,
2013-02-04 11:29:00,6.4,-20.4,29.80,NW,325,3.4,4.7,27,0.00,,---,0.00,VWS V14.00,2013-02-04 16:29:00,
2013-02-04 11:32:00,7.5,-19.5,29.80,NW,325,0.0,0.0,27,0.00,,---,0.00,VWS V14.00,2013-02-04 16:32:00,
2013-02-04 11:34:00,7.7,-19.3,29.80,NW,326,8.1,8.1,27,0.00,,---,0.00,VWS V14.00,2013-02-04 16:34:00,
2013-02-04 11:37:00,7.9,-19.1,29.80,NW,326,5.4,8.7,27,0.00,,---,0.00,VWS V14.00,2013-02-04 16:37:00,
2013-02-04 11:39:00,8.1,-19.0,29.80,NW,326,5.4,5.4,27,0.00,,---,0.00,VWS V14.00,2013-02-04 16:39:00,
2013-02-04 11:42:00,8.4,-18.7,29.80,NW,326,4.0,4.0,27,0.00,,---,0.00,VWS V14.00,2013-02-04 16:42:00,
2013-02-04 11:44:00,8.4,-18.7,29.80,NW,326,5.4,5.4,27,0.00,,---,0.00,VWS V14.00,2013-02-04 16:44:00,
2013-02-04 11:47:00,8.6,-18.5,29.80,NW,325,6.0,6.0,27,0.00,,---,0.00,VWS V14.00,2013-02-04 16:47:00,
2013-02-04 11:49:00,8.4,-18.7,29.80,NW,326,3.4,4.0,27,0.00,,---,0.00,VWS V14.00,2013-02-04 16:49:00,
2013-02-04 11:50:00,8.8,-18.4,29.80,NW,326,0.0,4.0,27,0.00,,---,0.00,VWS V14.00,2013-02-04 16:50:00,
2013-02-04 11:52:00,10.0,-17.3,29.80,NW,325,4.0,5.4,27,0.00,,---,0.00,VWS V14.00,2013-02-04 16:52:00,
2013-02-04 11:54:00,10.2,-17.1,29.80,NW,326,4.0,8.1,27,0.00,,---,0.00,VWS V14.00,2013-02-04 16:54:00,
2013-02-04 11:55:00,10.2,-17.1,29.80,NW,326,4.0,8.1,27,0.00,,---,0.00,VWS V14.00,2013-02-04 16:55:00,
2013-02-04 11:57:00,11.8,-15.7,29.80,NW,326,6.0,7.4,27,0.00,,---,0.00,VWS V14.00,2013-02-04 16:57:00,
2013-02-04 11:59:00,10.0,-17.3,29.80,NW,325,0.0,6.7,27,0.00,,---,0.00,VWS V14.00,2013-02-04 16:59:00,
2013-02-04 12:00:00,10.0,-17.3,29.80,NW,326,6.0,6.0,27,0.00,,---,0.00,VWS V14.00,2013-02-04 17:00:00,
2013-02-04 12:02:00,10.2,-17.1,29.80,NW,325,5.4,6.0,27,0.00,,---,0.00,VWS V14.00,2013-02-04 17:02:00,
2013-02-04 12:04:00,9.9,-17.4,29.80,NW,325,6.0,6.0,27,0.00,,---,0.00,VWS V14.00,2013-02-04 17:04:00,
2013-02-04 12:05:00,9.9,-17.4,29.80,NW,326,4.7,6.0,27,0.00,,---,0.00,VWS V14.00,2013-02-04 17:05:00,
2013-02-04 12:07:00,9.3,-17.9,29.80,NW,325,3.4,4.0,27,0.00,,---,0.00,VWS V14.00,2013-02-04 17:07:00,
2013-02-04 12:10:00,9.5,-17.7,29.80,NW,326,4.0,6.0,27,0.00,,---,0.00,VWS V14.00,2013-02-04 17:10:00,
2013-02-04 12:12:00,9.3,-17.9,29.80,NW,326,4.7,5.4,27,0.00,,---,0.00,VWS V14.00,2013-02-04 17:12:00,
2013-02-04 12:13:00,9.5,-17.7,29.80,NW,325,8.1,8.1,27,0.00,,---,0.00,VWS V14.00,2013-02-04 17:13:00,
2013-02-04 12:15:00,9.5,-17.7,29.80,NW,326,6.0,7.4,27,0.00,,---,0.00,VWS V14.00,2013-02-04 17:15:00,
2013-02-04 12:17:00,9.1,-18.0,29.80,NW,326,4.7,7.4,27,0.00,,---,0.00,VWS V14.00,2013-02-04 17:17:00,
2013-02-04 12:18:00,9.1,-18.0,29.80,NW,326,7.4,7.4,27,0.00,,---,0.00,VWS V14.00,2013-02-04 17:18:00,
2013-02-04 12:20:00,8.2,-18.8,29.80,NW,326,6.0,8.1,27,0.00,,---,0.00,VWS V14.00,2013-02-04 17:20:00,
2013-02-04 12:22:00,8.1,-19.0,29.80,NW,326,4.7,4.7,27,0.00,,---,0.00,VWS V14.00,2013-02-04 17:22:00,
2013-02-04 12:23:00,8.1,-19.0,29.80,NW,326,5.4,5.4,27,0.00,,---,0.00,VWS V14.00,2013-02-04 17:23:00,
2013-02-04 12:25:00,8.8,-18.4,29.80,NW,325,4.0,4.0,27,0.00,,---,0.00,VWS V14.00,2013-02-04 17:25:00,
2013-02-04 12:27:00,9.1,-18.0,29.80,NW,326,9.4,10.7,27,0.00,,---,0.00,VWS V14.00,2013-02-04 17:27:00,
2013-02-04 12:28:00,8.8,-18.4,29.80,NW,325,8.7,8.7,27,0.00,,---,0.00,VWS V14.00,2013-02-04 17:28:00,
2013-02-04 12:30:00,8.4,-18.7,29.80,NW,326,4.7,5.4,27,0.00,,---,0.00,VWS V14.00,2013-02-04 17:30:00,
2013-02-04 12:33:00,7.7,-19.3,29.80,NW,326,6.0,8.7,27,0.00,,---,0.00,VWS V14.00,2013-02-04 17:33:00,
2013-02-04 12:35:00,8.6,-18.5,29.80,NW,325,4.7,6.0,27,0.00,,---,0.00,VWS V14.00,2013-02-04 17:35:00,
2013-02-04 12:38:00,9.9,-17.4,29.80,NW,326,4.0,8.7,27,0.00,,---,0.00,VWS V14.00,2013-02-04 17:38:00,
2013-02-04 12:40:00,10.4,-17.0,29.80,NW,326,4.7,5.4,27,0.00,,---,0.00,VWS V14.00,2013-02-04 17:40:00,
2013-02-04 12:43:00,10.2,-17.1,29.80,NW,325,3.4,6.0,27,0.00,,---,0.00,VWS V14.00,2013-02-04 17:43:00,
2013-02-04 12:45:00,10.4,-17.0,29.80,NW,326,5.4,8.7,27,0.00,,---,0.00,VWS V14.00,2013-02-04 17:45:00,
2013-02-04 12:48:00,9.3,-17.9,29.80,NW,326,3.4,4.7,27,0.00,,---,0.00,VWS V14.00,2013-02-04 17:48:00,
2013-02-04 12:50:00,9.3,-17.9,29.80,NW,325,4.7,6.0,27,0.00,,---,0.00,VWS V14.00,2013-02-04 17:50:00,
2013-02-04 12:53:00,10.4,-17.0,29.80,NW,326,4.7,5.4,27,0.00,,---,0.00,VWS V14.00,2013-02-04 17:53:00,
2013-02-04 12:55:00,10.9,-16.5,29.80,NW,326,7.4,8.7,27,0.00,,---,0.00,VWS V14.00,2013-02-04 17:55:00,
2013-02-04 12:58:00,10.4,-17.0,29.80,NW,326,5.4,6.0,27,0.00,,---,0.00,VWS V14.00,2013-02-04 17:58:00,
2013-02-04 13:00:00,11.8,-15.7,29.80,NW,326,7.4,7.4,27,0.00,,---,0.00,VWS V14.00,2013-02-04 18:00:00,
2013-02-04 13:01:00,11.8,-15.7,29.80,NW,326,4.7,4.7,27,0.00,,---,0.00,VWS V14.00,2013-02-04 18:01:00,
2013-02-04 13:03:00,13.6,-14.1,29.80,NW,325,6.0,6.0,27,0.00,,---,0.00,VWS V14.00,2013-02-04 18:03:00,
2013-02-04 13:06:00,13.8,-14.7,29.80,NW,326,4.0,6.0,26,0.00,,---,0.00,VWS V14.00,2013-02-04 18:06:00,
2013-02-04 13:08:00,14.2,-14.4,29.80,NW,326,4.7,5.4,26,0.00,,---,0.00,VWS V14.00,2013-02-04 18:08:00,
2013-02-04 13:11:00,15.8,-13.0,29.80,NW,326,5.4,5.4,26,0.00,,---,0.00,VWS V14.00,2013-02-04 18:11:00,
2013-02-04 13:13:00,14.2,-14.4,29.80,NW,326,0.0,4.7,26,0.00,,---,0.00,VWS V14.00,2013-02-04 18:13:00,
2013-02-04 13:16:00,12.2,-16.1,29.80,NW,326,7.4,7.4,26,0.00,,---,0.00,VWS V14.00,2013-02-04 18:16:00,
2013-02-04 13:18:00,12.6,-15.8,29.80,NW,326,3.4,6.0,26,0.00,,---,0.00,VWS V14.00,2013-02-04 18:18:00,
2013-02-04 13:19:00,12.6,-15.8,29.80,NW,326,6.0,6.0,26,0.00,,---,0.00,VWS V14.00,2013-02-04 18:19:00,
2013-02-04 13:21:00,13.3,-15.2,29.80,NW,326,4.0,4.0,26,0.00,,---,0.00,VWS V14.00,2013-02-04 18:21:00,
2013-02-04 13:24:00,12.9,-15.5,29.80,NW,326,3.4,6.0,26,0.00,,---,0.00,VWS V14.00,2013-02-04 18:24:00,
2013-02-04 13:26:00,12.7,-15.6,29.80,NW,326,0.0,3.4,26,0.00,,---,0.00,VWS V14.00,2013-02-04 18:26:00,
2013-02-04 13:27:00,13.3,-15.2,29.80,NW,326,0.0,3.4,26,0.00,,---,0.00,VWS V14.00,2013-02-04 18:27:00,
2013-02-04 13:29:00,13.5,-15.0,29.80,NW,326,6.0,6.0,26,0.00,,---,0.00,VWS V14.00,2013-02-04 18:29:00,
2013-02-04 13:31:00,12.7,-15.6,29.80,NW,326,3.4,5.4,26,0.00,,---,0.00,VWS V14.00,2013-02-04 18:31:00,
2013-02-04 13:32:00,12.2,-16.1,29.80,NW,326,7.4,7.4,26,0.00,,---,0.00,VWS V14.00,2013-02-04 18:32:00,
2013-02-04 13:34:00,11.7,-16.6,29.80,NW,326,4.0,7.4,26,0.00,,---,0.00,VWS V14.00,2013-02-04 18:34:00,
2013-02-04 13:36:00,11.3,-16.9,29.78,NW,325,4.0,4.0,26,0.00,,---,0.00,VWS V14.00,2013-02-04 18:36:00,
2013-02-04 13:37:00,11.3,-16.9,29.78,NW,326,8.1,8.1,26,0.00,,---,0.00,VWS V14.00,2013-02-04 18:37:00,
2013-02-04 13:39:00,11.3,-16.9,29.78,NW,326,5.4,5.4,26,0.00,,---,0.00,VWS V14.00,2013-02-04 18:39:00,
2013-02-04 13:41:00,10.9,-17.2,29.78,NW,326,4.7,6.0,26,0.00,,---,0.00,VWS V14.00,2013-02-04 18:41:00,
2013-02-04 13:42:00,11.3,-16.9,29.78,NW,326,0.0,0.0,26,0.00,,---,0.00,VWS V14.00,2013-02-04 18:42:00,
2013-02-04 13:44:00,11.7,-16.6,29.78,NW,326,6.0,8.7,26,0.00,,---,0.00,VWS V14.00,2013-02-04 18:44:00,
2013-02-04 13:46:00,12.0,-16.3,29.78,NW,326,4.0,9.4,26,0.00,,---,0.00,VWS V14.00,2013-02-04 18:46:00,
2013-02-04 13:47:00,11.8,-16.4,29.78,NW,325,4.7,4.7,26,0.00,,---,0.00,VWS V14.00,2013-02-04 18:47:00,
2013-02-04 13:49:00,11.3,-16.9,29.78,NW,326,0.0,4.0,26,0.00,,---,0.00,VWS V14.00,2013-02-04 18:49:00,
2013-02-04 13:52:00,10.9,-17.2,29.78,NW,326,4.7,4.7,26,0.00,,---,0.00,VWS V14.00,2013-02-04 18:52:00,
2013-02-04 13:53:00,10.9,-17.2,29.78,NW,326,0.0,7.4,26,0.00,,---,0.00,VWS V14.00,2013-02-04 18:53:00,
2013-02-04 13:54:00,10.8,-17.4,29.78,NW,326,5.4,5.4,26,0.00,,---,0.00,VWS V14.00,2013-02-04 18:54:00,
2013-02-04 13:57:00,11.3,-16.9,29.78,NW,326,0.0,5.4,26,0.00,,---,0.00,VWS V14.00,2013-02-04 18:57:00,
2013-02-04 13:58:00,11.1,-17.1,29.78,NW,326,5.4,7.4,26,0.00,,---,0.00,VWS V14.00,2013-02-04 18:58:00,
2013-02-04 13:59:00,11.7,-16.6,29.78,NW,326,4.7,4.7,26,0.00,,---,0.00,VWS V14.00,2013-02-04 18:59:00,
2013-02-04 14:00:00,11.7,-16.6,29.78,NW,326,4.0,5.4,26,0.00,,---,0.00,VWS V14.00,2013-02-04 19:00:00,
2013-02-04 14:02:00,11.8,-16.4,29.78,NW,326,0.0,8.1,26,0.00,,---,0.00,VWS V14.00,2013-02-04 19:02:00,
2013-02-04 14:03:00,11.7,-16.6,29.78,NW,326,4.0,4.0,26,0.00,,---,0.00,VWS V14.00,2013-02-04 19:03:00,
2013-02-04 14:04:00,11.5,-16.8,29.78,NW,326,4.7,8.1,26,0.00,,---,0.00,VWS V14.00,2013-02-04 19:04:00,
2013-02-04 14:05:00,11.3,-16.9,29.78,NW,326,5.4,8.1,26,0.00,,---,0.00,VWS V14.00,2013-02-04 19:05:00,
2013-02-04 14:07:00,10.8,-17.4,29.78,NW,326,4.0,8.1,26,0.00,,---,0.00,VWS V14.00,2013-02-04 19:07:00,
2013-02-04 14:08:00,10.9,-17.2,29.78,NW,326,0.0,4.0,26,0.00,,---,0.00,VWS V14.00,2013-02-04 19:08:00,
2013-02-04 14:09:00,10.8,-17.4,29.78,NW,326,4.0,4.0,26,0.00,,---,0.00,VWS V14.00,2013-02-04 19:09:00,
2013-02-04 14:10:00,10.8,-17.4,29.78,NW,326,5.4,5.4,26,0.00,,---,0.00,VWS V14.00,2013-02-04 19:10:00,
2013-02-04 14:12:00,10.4,-17.7,29.78,NW,326,0.0,6.0,26,0.00,,---,0.00,VWS V14.00,2013-02-04 19:12:00,
2013-02-04 14:13:00,10.4,-17.7,29.78,NW,325,0.0,0.0,26,0.00,,---,0.00,VWS V14.00,2013-02-04 19:13:00,
2013-02-04 14:14:00,10.6,-17.5,29.78,NW,326,0.0,0.0,26,0.00,,---,0.00,VWS V14.00,2013-02-04 19:14:00,
2013-02-04 14:15:00,10.6,-17.5,29.78,NW,326,4.0,4.0,26,0.00,,---,0.00,VWS V14.00,2013-02-04 19:15:00,
2013-02-04 14:17:00,10.9,-17.2,29.78,NW,326,5.4,5.4,26,0.00,,---,0.00,VWS V14.00,2013-02-04 19:17:00,
2013-02-04 14:18:00,11.3,-16.9,29.78,NW,326,5.4,5.4,26,0.00,,---,0.00,VWS V14.00,2013-02-04 19:18:00,
2013-02-04 14:20:00,11.5,-16.8,29.78,NW,326,6.0,6.0,26,0.00,,---,0.00,VWS V14.00,2013-02-04 19:20:00,
2013-02-04 14:22:00,12.2,-16.1,29.78,NW,326,0.0,0.0,26,0.00,,---,0.00,VWS V14.00,2013-02-04 19:22:00,
2013-02-04 14:23:00,12.7,-15.6,29.78,NW,326,0.0,0.0,26,0.00,,---,0.00,VWS V14.00,2013-02-04 19:23:00,
2013-02-04 14:25:00,12.9,-15.5,29.78,NW,326,4.0,6.0,26,0.00,,---,0.00,VWS V14.00,2013-02-04 19:25:00,
2013-02-04 14:27:00,13.1,-15.3,29.78,NW,326,5.4,5.4,26,0.00,,---,0.00,VWS V14.00,2013-02-04 19:27:00,
2013-02-04 14:28:00,12.6,-15.8,29.78,NW,326,5.4,5.4,26,0.00,,---,0.00,VWS V14.00,2013-02-04 19:28:00,
2013-02-04 14:30:00,12.2,-16.1,29.78,NW,326,4.0,4.0,26,0.00,,---,0.00,VWS V14.00,2013-02-04 19:30:00,
2013-02-04 14:32:00,12.0,-16.3,29.78,NW,326,0.0,6.0,26,0.00,,---,0.00,VWS V14.00,2013-02-04 19:32:00,
2013-02-04 14:34:00,11.7,-16.6,29.78,NW,326,8.7,8.7,26,0.00,,---,0.00,VWS V14.00,2013-02-04 19:34:00,
2013-02-04 14:35:00,11.7,-16.6,29.78,NW,326,4.0,8.1,26,0.00,,---,0.00,VWS V14.00,2013-02-04 19:35:00,
2013-02-04 14:37:00,11.8,-16.4,29.78,NW,326,4.0,4.0,26,0.00,,---,0.00,VWS V14.00,2013-02-04 19:37:00,
2013-02-04 14:39:00,11.8,-16.4,29.78,NW,326,6.0,6.0,26,0.00,,---,0.00,VWS V14.00,2013-02-04 19:39:00,
2013-02-04 14:40:00,12.2,-16.1,29.78,NW,326,0.0,4.0,26,0.00,,---,0.00,VWS V14.00,2013-02-04 19:40:00,
2013-02-04 14:42:00,12.4,-16.0,29.78,NW,326,0.0,4.7,26,0.00,,---,0.00,VWS V14.00,2013-02-04 19:42:00,
2013-02-04 14:44:00,12.4,-16.0,29.78,NW,326,4.7,6.0,26,0.00,,---,0.00,VWS V14.00,2013-02-04 19:44:00,
2013-02-04 14:45:00,12.4,-16.0,29.78,NW,326,0.0,0.0,26,0.00,,---,0.00,VWS V14.00,2013-02-04 19:45:00,
2013-02-04 14:47:00,12.7,-15.6,29.78,NW,326,0.0,0.0,26,0.00,,---,0.00,VWS V14.00,2013-02-04 19:47:00,
2013-02-04 14:49:00,12.6,-15.8,29.78,NW,326,4.0,4.0,26,0.00,,---,0.00,VWS V14.00,2013-02-04 19:49:00,
2013-02-04 14:50:00,12.2,-16.1,29.78,NW,326,0.0,6.0,26,0.00,,---,0.00,VWS V14.00,2013-02-04 19:50:00,
2013-02-04 14:53:00,11.7,-16.6,29.78,NW,326,0.0,4.7,26,0.00,,---,0.00,VWS V14.00,2013-02-04 19:53:00,
2013-02-04 14:54:00,11.3,-16.9,29.78,NW,326,0.0,0.0,26,0.00,,---,0.00,VWS V14.00,2013-02-04 19:54:00,
2013-02-04 14:55:00,11.1,-17.1,29.78,NW,326,0.0,0.0,26,0.00,,---,0.00,VWS V14.00,2013-02-04 19:55:00,
2013-02-04 14:58:00,10.9,-17.2,29.78,NW,326,0.0,4.0,26,0.00,,---,0.00,VWS V14.00,2013-02-04 19:58:00,
2013-02-04 14:59:00,11.1,-17.1,29.78,NW,326,0.0,0.0,26,0.00,,---,0.00,VWS V14.00,2013-02-04 19:59:00,
2013-02-04 15:00:00,11.5,-16.8,29.78,NW,326,4.7,4.7,26,0.00,,---,0.00,VWS V14.00,2013-02-04 20:00:00,
2013-02-04 15:03:00,12.0,-16.3,29.78,NW,326,4.0,5.4,26,0.00,,---,0.00,VWS V14.00,2013-02-04 20:03:00,
2013-02-04 15:04:00,12.4,-16.0,29.78,NW,326,0.0,3.4,26,0.00,,---,0.00,VWS V14.00,2013-02-04 20:04:00,
2013-02-04 15:05:00,13.3,-15.2,29.78,NW,326,0.0,0.0,26,0.00,,---,0.00,VWS V14.00,2013-02-04 20:05:00,
2013-02-04 15:06:00,13.3,-15.2,29.78,NW,326,0.0,0.0,26,0.00,,---,0.00,VWS V14.00,2013-02-04 20:06:00,
2013-02-04 15:08:00,14.4,-14.2,29.78,NW,326,0.0,4.0,26,0.00,,---,0.00,VWS V14.00,2013-02-04 20:08:00,
2013-02-04 15:09:00,14.7,-13.9,29.78,NW,326,0.0,0.0,26,0.00,,---,0.00,VWS V14.00,2013-02-04 20:09:00,
2013-02-04 15:10:00,14.4,-14.2,29.78,NW,326,4.0,7.4,26,0.00,,---,0.00,VWS V14.00,2013-02-04 20:10:00,
2013-02-04 15:11:00,14.0,-13.8,29.78,NW,326,0.0,7.4,27,0.00,,---,0.00,VWS V14.00,2013-02-04 20:11:00,
2013-02-04 15:13:00,12.9,-14.8,29.78,NW,326,3.4,6.0,27,0.00,,---,0.00,VWS V14.00,2013-02-04 20:13:00,
2013-02-04 15:14:00,12.4,-15.2,29.78,NW,326,0.0,0.0,27,0.00,,---,0.00,VWS V14.00,2013-02-04 20:14:00,
2013-02-04 15:15:00,12.2,-15.4,29.78,NW,326,0.0,0.0,27,0.00,,---,0.00,VWS V14.00,2013-02-04 20:15:00,
2013-02-04 15:16:00,12.2,-15.4,29.78,NW,326,0.0,4.0,27,0.00,,---,0.00,VWS V14.00,2013-02-04 20:16:00,
2013-02-04 15:18:00,11.8,-15.7,29.78,NW,326,0.0,0.0,27,0.00,,---,0.00,VWS V14.00,2013-02-04 20:18:00,
2013-02-04 15:19:00,11.1,-16.3,29.78,NW,326,5.4,6.0,27,0.00,,---,0.00,VWS V14.00,2013-02-04 20:19:00,
2013-02-04 15:20:00,10.9,-16.5,29.78,NW,326,6.0,6.0,27,0.00,,---,0.00,VWS V14.00,2013-02-04 20:20:00,
2013-02-04 15:21:00,10.8,-16.6,29.78,NW,326,4.0,6.0,27,0.00,,---,0.00,VWS V14.00,2013-02-04 20:21:00,
2013-02-04 15:23:00,10.2,-17.1,29.78,NW,326,5.4,6.0,27,0.00,,---,0.00,VWS V14.00,2013-02-04 20:23:00,
2013-02-04 15:24:00,9.9,-17.4,29.78,NW,326,4.0,4.7,27,0.00,,---,0.00,VWS V14.00,2013-02-04 20:24:00,
2013-02-04 15:25:00,9.7,-17.6,29.78,NW,325,0.0,6.0,27,0.00,,---,0.00,VWS V14.00,2013-02-04 20:25:00,
2013-02-04 15:26:00,9.7,-17.6,29.78,NW,326,0.0,6.0,27,0.00,,---,0.00,VWS V14.00,2013-02-04 20:26:00,
2013-02-04 15:28:00,9.5,-17.7,29.78,NW,326,3.4,3.4,27,0.00,,---,0.00,VWS V14.00,2013-02-04 20:28:00,
2013-02-04 15:30:00,9.5,-17.7,29.78,NW,326,4.0,4.0,27,0.00,,---,0.00,VWS V14.00,2013-02-04 20:30:00,
2013-02-04 15:31:00,9.5,-17.7,29.78,NW,325,4.7,5.4,27,0.00,,---,0.00,VWS V14.00,2013-02-04 20:31:00,
2013-02-04 15:33:00,9.3,-17.9,29.78,NW,326,0.0,0.0,27,0.00,,---,0.00,VWS V14.00,2013-02-04 20:33:00,
2013-02-04 15:35:00,9.3,-17.9,29.78,NW,326,4.0,4.7,27,0.00,,---,0.00,VWS V14.00,2013-02-04 20:35:00,
2013-02-04 15:36:00,9.1,-18.0,29.75,NW,326,0.0,0.0,27,0.00,,---,0.00,VWS V14.00,2013-02-04 20:36:00,
2013-02-04 15:38:00,9.1,-18.0,29.75,NW,326,0.0,0.0,27,0.00,,---,0.00,VWS V14.00,2013-02-04 20:38:00,
2013-02-04 15:40:00,9.1,-18.0,29.75,NW,326,0.0,0.0,27,0.00,,---,0.00,VWS V14.00,2013-02-04 20:40:00,
2013-02-04 15:41:00,9.1,-18.0,29.75,NW,326,0.0,0.0,27,0.00,,---,0.00,VWS V14.00,2013-02-04 20:41:00,
2013-02-04 15:43:00,9.1,-18.0,29.75,NW,326,0.0,0.0,27,0.00,,---,0.00,VWS V14.00,2013-02-04 20:43:00,
2013-02-04 15:45:00,9.0,-18.2,29.75,NW,326,0.0,0.0,27,0.00,,---,0.00,VWS V14.00,2013-02-04 20:45:00,
2013-02-04 15:46:00,9.1,-18.0,29.75,NW,325,0.0,0.0,27,0.00,,---,0.00,VWS V14.00,2013-02-04 20:46:00,
2013-02-04 15:48:00,9.1,-18.0,29.75,NW,326,0.0,0.0,27,0.00,,---,0.00,VWS V14.00,2013-02-04 20:48:00,
2013-02-04 15:50:00,9.0,-18.2,29.75,NW,326,0.0,0.0,27,0.00,,---,0.00,VWS V14.00,2013-02-04 20:50:00,
2013-02-04 15:51:00,9.0,-18.2,29.75,NW,326,0.0,0.0,27,0.00,,---,0.00,VWS V14.00,2013-02-04 20:51:00,
2013-02-04 15:53:00,8.8,-18.4,29.75,NW,326,0.0,0.0,27,0.00,,---,0.00,VWS V14.00,2013-02-04 20:53:00,
2013-02-04 15:55:00,8.6,-18.5,29.75,NW,326,4.0,4.0,27,0.00,,---,0.00,VWS V14.00,2013-02-04 20:55:00,
2013-02-04 15:56:00,8.6,-18.5,29.75,NW,326,0.0,0.0,27,0.00,,---,0.00,VWS V14.00,2013-02-04 20:56:00,
2013-02-04 15:58:00,8.6,-18.5,29.75,NW,326,0.0,0.0,27,0.00,,---,0.00,VWS V14.00,2013-02-04 20:58:00,
2013-02-04 16:00:00,8.8,-18.4,29.75,NW,325,0.0,0.0,27,0.00,,---,0.00,VWS V14.00,2013-02-04 21:00:00,
2013-02-04 16:01:00,9.0,-18.2,29.75,NW,326,0.0,0.0,27,0.00,,---,0.00,VWS V14.00,2013-02-04 21:01:00,
2013-02-04 16:03:00,9.7,-17.6,29.75,NW,326,0.0,0.0,27,0.00,,---,0.00,VWS V14.00,2013-02-04 21:03:00,
2013-02-04 16:05:00,9.7,-17.6,29.75,NW,326,0.0,0.0,27,0.00,,---,0.00,VWS V14.00,2013-02-04 21:05:00,
2013-02-04 16:06:00,9.5,-17.7,29.75,NW,325,0.0,0.0,27,0.00,,---,0.00,VWS V14.00,2013-02-04 21:06:00,
2013-02-04 16:08:00,9.3,-17.9,29.75,NW,326,0.0,0.0,27,0.00,,---,0.00,VWS V14.00,2013-02-04 21:08:00,
2013-02-04 16:10:00,9.1,-18.0,29.75,NW,326,0.0,0.0,27,0.00,,---,0.00,VWS V14.00,2013-02-04 21:10:00,
2013-02-04 16:11:00,9.0,-18.2,29.75,NW,326,0.0,3.4,27,0.00,,---,0.00,VWS V14.00,2013-02-04 21:11:00,
2013-02-04 16:13:00,8.8,-18.4,29.75,NW,325,0.0,0.0,27,0.00,,---,0.00,VWS V14.00,2013-02-04 21:13:00,
2013-02-04 16:15:00,9.1,-18.0,29.75,NW,326,0.0,0.0,27,0.00,,---,0.00,VWS V14.00,2013-02-04 21:15:00,
2013-02-04 16:16:00,9.3,-17.9,29.75,NW,326,0.0,0.0,27,0.00,,---,0.00,VWS V14.00,2013-02-04 21:16:00,
2013-02-04 16:18:00,9.5,-17.7,29.75,NW,326,3.4,3.4,27,0.00,,---,0.00,VWS V14.00,2013-02-04 21:18:00,
2013-02-04 16:20:00,9.5,-17.7,29.75,NW,326,0.0,3.4,27,0.00,,---,0.00,VWS V14.00,2013-02-04 21:20:00,
2013-02-04 16:21:00,9.7,-17.6,29.75,NW,326,4.0,4.0,27,0.00,,---,0.00,VWS V14.00,2013-02-04 21:21:00,
2013-02-04 16:23:00,9.7,-17.6,29.75,NW,326,0.0,3.4,27,0.00,,---,0.00,VWS V14.00,2013-02-04 21:23:00,
2013-02-04 16:25:00,9.7,-17.6,29.75,NW,326,4.7,6.0,27,0.00,,---,0.00,VWS V14.00,2013-02-04 21:25:00,
2013-02-04 16:26:00,9.7,-17.6,29.75,NW,326,4.7,4.7,27,0.00,,---,0.00,VWS V14.00,2013-02-04 21:26:00,
2013-02-04 16:29:00,9.7,-17.6,29.75,NW,326,0.0,6.0,27,0.00,,---,0.00,VWS V14.00,2013-02-04 21:29:00,
2013-02-04 16:30:00,10.2,-17.1,29.75,NW,325,0.0,0.0,27,0.00,,---,0.00,VWS V14.00,2013-02-04 21:30:00,
2013-02-04 16:31:00,10.2,-17.1,29.75,NW,326,0.0,0.0,27,0.00,,---,0.00,VWS V14.00,2013-02-04 21:31:00,
2013-02-04 16:34:00,10.9,-16.5,29.75,NW,326,0.0,0.0,27,0.00,,---,0.00,VWS V14.00,2013-02-04 21:34:00,
2013-02-04 16:36:00,11.7,-15.9,29.75,NW,326,0.0,0.0,27,0.00,,---,0.00,VWS V14.00,2013-02-04 21:36:00,
2013-02-04 16:37:00,11.8,-15.7,29.75,NW,326,3.4,3.4,27,0.00,,---,0.00,VWS V14.00,2013-02-04 21:37:00,
2013-02-04 16:39:00,11.3,-16.2,29.75,NW,326,0.0,0.0,27,0.00,,---,0.00,VWS V14.00,2013-02-04 21:39:00,
2013-02-04 16:41:00,10.8,-16.6,29.75,NW,326,4.0,4.7,27,0.00,,---,0.00,VWS V14.00,2013-02-04 21:41:00,
2013-02-04 16:42:00,10.6,-16.8,29.75,NW,326,0.0,4.7,27,0.00,,---,0.00,VWS V14.00,2013-02-04 21:42:00,
2013-02-04 16:44:00,10.2,-17.1,29.75,NW,326,3.4,3.4,27,0.00,,---,0.00,VWS V14.00,2013-02-04 21:44:00,
2013-02-04 16:46:00,10.0,-17.3,29.75,NW,326,3.4,7.4,27,0.00,,---,0.00,VWS V14.00,2013-02-04 21:46:00,
2013-02-04 16:47:00,9.9,-17.4,29.75,NW,326,4.7,4.7,27,0.00,,---,0.00,VWS V14.00,2013-02-04 21:47:00,
2013-02-04 16:49:00,9.5,-17.7,29.75,NW,326,4.0,4.7,27,0.00,,---,0.00,VWS V14.00,2013-02-04 21:49:00,
2013-02-04 16:51:00,9.5,-17.7,29.75,NW,326,4.7,4.7,27,0.00,,---,0.00,VWS V14.00,2013-02-04 21:51:00,
2013-02-04 16:52:00,9.3,-17.9,29.75,NW,326,0.0,0.0,27,0.00,,---,0.00,VWS V14.00,2013-02-04 21:52:00,
2013-02-04 16:54:00,9.1,-18.0,29.75,NW,326,0.0,0.0,27,0.00,,---,0.00,VWS V14.00,2013-02-04 21:54:00,
2013-02-04 16:56:00,8.8,-18.4,29.75,NW,326,0.0,0.0,27,0.00,,---,0.00,VWS V14.00,2013-02-04 21:56:00,
2013-02-04 16:57:00,8.8,-18.4,29.75,NW,326,3.4,3.4,27,0.00,,---,0.00,VWS V14.00,2013-02-04 21:57:00,
2013-02-04 16:59:00,8.6,-18.5,29.75,NW,326,0.0,0.0,27,0.00,,---,0.00,VWS V14.00,2013-02-04 21:59:00,
2013-02-04 17:01:00,8.6,-18.5,29.75,NW,326,0.0,0.0,27,0.00,,---,0.00,VWS V14.00,2013-02-04 22:01:00,
2013-02-04 17:02:00,8.6,-18.5,29.75,NW,326,0.0,0.0,27,0.00,,---,0.00,VWS V14.00,2013-02-04 22:02:00,
2013-02-04 17:04:00,8.6,-18.5,29.75,NW,326,0.0,0.0,27,0.00,,---,0.00,VWS V14.00,2013-02-04 22:04:00,
2013-02-04 17:06:00,8.4,-18.7,29.75,NW,326,0.0,0.0,27,0.00,,---,0.00,VWS V14.00,2013-02-04 22:06:00,
2013-02-04 17:07:00,8.4,-18.7,29.75,NW,326,0.0,0.0,27,0.00,,---,0.00,VWS V14.00,2013-02-04 22:07:00,
2013-02-04 17:10:00,8.1,-19.0,29.75,NW,326,0.0,0.0,27,0.00,,---,0.00,VWS V14.00,2013-02-04 22:10:00,
2013-02-04 17:11:00,7.9,-19.1,29.75,NW,326,0.0,0.0,27,0.00,,---,0.00,VWS V14.00,2013-02-04 22:11:00,
2013-02-04 17:12:00,7.9,-19.1,29.75,NW,326,0.0,0.0,27,0.00,,---,0.00,VWS V14.00,2013-02-04 22:12:00,
2013-02-04 17:15:00,7.9,-19.1,29.75,NW,326,0.0,0.0,27,0.00,,---,0.00,VWS V14.00,2013-02-04 22:15:00,
2013-02-04 17:16:00,7.9,-19.1,29.75,NW,326,0.0,0.0,27,0.00,,---,0.00,VWS V14.00,2013-02-04 22:16:00,
2013-02-04 17:17:00,7.9,-19.1,29.75,NW,326,0.0,0.0,27,0.00,,---,0.00,VWS V14.00,2013-02-04 22:17:00,
2013-02-04 17:20:00,7.7,-19.3,29.75,NW,326,0.0,0.0,27,0.00,,---,0.00,VWS V14.00,2013-02-04 22:20:00,
2013-02-04 17:21:00,7.7,-19.3,29.75,NW,326,0.0,0.0,27,0.00,,---,0.00,VWS V14.00,2013-02-04 22:21:00,
2013-02-04 17:22:00,7.7,-19.3,29.75,NW,326,0.0,0.0,27,0.00,,---,0.00,VWS V14.00,2013-02-04 22:22:00,
2013-02-04 17:23:00,7.7,-19.3,29.75,NW,326,0.0,0.0,27,0.00,,---,0.00,VWS V14.00,2013-02-04 22:23:00,
2013-02-04 17:25:00,7.7,-19.3,29.75,NW,326,0.0,0.0,27,0.00,,---,0.00,VWS V14.00,2013-02-04 22:25:00,
2013-02-04 17:26:00,7.7,-19.3,29.75,NW,326,0.0,0.0,27,0.00,,---,0.00,VWS V14.00,2013-02-04 22:26:00,
2013-02-04 17:27:00,7.7,-19.3,29.75,NW,326,0.0,0.0,27,0.00,,---,0.00,VWS V14.00,2013-02-04 22:27:00,
2013-02-04 17:28:00,7.7,-19.3,29.75,NW,326,0.0,0.0,27,0.00,,---,0.00,VWS V14.00,2013-02-04 22:28:00,
2013-02-04 17:30:00,7.5,-19.5,29.75,NW,326,0.0,0.0,27,0.00,,---,0.00,VWS V14.00,2013-02-04 22:30:00,
2013-02-04 17:31:00,7.5,-19.5,29.75,NW,326,0.0,0.0,27,0.00,,---,0.00,VWS V14.00,2013-02-04 22:31:00,
2013-02-04 17:32:00,7.2,-19.8,29.75,NW,326,0.0,0.0,27,0.00,,---,0.00,VWS V14.00,2013-02-04 22:32:00,
2013-02-04 17:33:00,7.2,-19.8,29.75,NW,326,0.0,0.0,27,0.00,,---,0.00,VWS V14.00,2013-02-04 22:33:00,
2013-02-04 17:35:00,7.0,-19.9,29.75,NW,326,0.0,0.0,27,0.00,,---,0.00,VWS V14.00,2013-02-04 22:35:00,
2013-02-04 17:36:00,7.0,-19.9,29.75,NW,326,0.0,0.0,27,0.00,,---,0.00,VWS V14.00,2013-02-04 22:36:00,
2013-02-04 17:38:00,7.0,-19.9,29.75,NW,326,0.0,0.0,27,0.00,,---,0.00,VWS V14.00,2013-02-04 22:38:00,
2013-02-04 17:40:00,6.8,-20.1,29.75,NW,326,0.0,0.0,27,0.00,,---,0.00,VWS V14.00,2013-02-04 22:40:00,
2013-02-04 17:42:00,6.8,-20.1,29.75,NW,326,0.0,0.0,27,0.00,,---,0.00,VWS V14.00,2013-02-04 22:42:00,
2013-02-04 17:43:00,6.8,-20.1,29.75,NW,326,0.0,0.0,27,0.00,,---,0.00,VWS V14.00,2013-02-04 22:43:00,
2013-02-04 17:45:00,6.6,-20.2,29.75,NW,326,0.0,0.0,27,0.00,,---,0.00,VWS V14.00,2013-02-04 22:45:00,
2013-02-04 17:47:00,6.4,-20.4,29.75,NW,326,0.0,0.0,27,0.00,,---,0.00,VWS V14.00,2013-02-04 22:47:00,
2013-02-04 17:48:00,6.4,-20.4,29.75,NW,326,0.0,0.0,27,0.00,,---,0.00,VWS V14.00,2013-02-04 22:48:00,
2013-02-04 17:50:00,6.4,-20.4,29.75,NW,326,0.0,0.0,27,0.00,,---,0.00,VWS V14.00,2013-02-04 22:50:00,
2013-02-04 17:52:00,6.3,-20.6,29.75,NW,326,0.0,0.0,27,0.00,,---,0.00,VWS V14.00,2013-02-04 22:52:00,
2013-02-04 17:53:00,6.3,-20.6,29.75,NW,326,0.0,0.0,27,0.00,,---,0.00,VWS V14.00,2013-02-04 22:53:00,
2013-02-04 17:55:00,6.1,-20.7,29.75,NW,326,0.0,0.0,27,0.00,,---,0.00,VWS V14.00,2013-02-04 22:55:00,
2013-02-04 17:57:00,6.1,-20.7,29.75,NW,326,0.0,0.0,27,0.00,,---,0.00,VWS V14.00,2013-02-04 22:57:00,
2013-02-04 17:58:00,5.9,-20.9,29.75,NW,326,0.0,0.0,27,0.00,,---,0.00,VWS V14.00,2013-02-04 22:58:00,
2013-02-04 17:59:00,5.9,-20.9,29.75,NW,326,0.0,0.0,27,0.00,,---,0.00,VWS V14.00,2013-02-04 22:59:00,
2013-02-04 18:00:00,5.9,-20.9,29.75,NW,326,0.0,0.0,27,0.00,,---,0.00,VWS V14.00,2013-02-04 23:00:00,
2013-02-04 18:02:00,5.9,-20.9,29.75,NW,326,0.0,0.0,27,0.00,,---,0.00,VWS V14.00,2013-02-04 23:02:00,
2013-02-04 18:03:00,5.9,-20.9,29.75,NW,326,0.0,0.0,27,0.00,,---,0.00,VWS V14.00,2013-02-04 23:03:00,
2013-02-04 18:04:00,5.7,-21.0,29.75,NW,326,0.0,0.0,27,0.00,,---,0.00,VWS V14.00,2013-02-04 23:04:00,
2013-02-04 18:05:00,5.7,-21.0,29.75,NW,326,0.0,0.0,27,0.00,,---,0.00,VWS V14.00,2013-02-04 23:05:00,
2013-02-04 18:07:00,5.5,-21.2,29.75,NW,326,0.0,0.0,27,0.00,,---,0.00,VWS V14.00,2013-02-04 23:07:00,
2013-02-04 18:08:00,5.5,-21.2,29.75,NW,326,0.0,0.0,27,0.00,,---,0.00,VWS V14.00,2013-02-04 23:08:00,
2013-02-04 18:09:00,5.5,-21.2,29.75,NW,326,0.0,0.0,27,0.00,,---,0.00,VWS V14.00,2013-02-04 23:09:00,
2013-02-04 18:11:00,5.5,-21.2,29.75,NW,326,0.0,0.0,27,0.00,,---,0.00,VWS V14.00,2013-02-04 23:11:00,
2013-02-04 18:12:00,5.5,-21.2,29.75,NW,326,0.0,0.0,27,0.00,,---,0.00,VWS V14.00,2013-02-04 23:12:00,
2013-02-04 18:13:00,5.4,-21.4,29.75,NW,325,0.0,0.0,27,0.00,,---,0.00,VWS V14.00,2013-02-04 23:13:00,
2013-02-04 18:14:00,5.5,-21.2,29.75,NW,326,0.0,0.0,27,0.00,,---,0.00,VWS V14.00,2013-02-04 23:14:00,
2013-02-04 18:16:00,5.4,-21.4,29.75,NW,325,0.0,0.0,27,0.00,,---,0.00,VWS V14.00,2013-02-04 23:16:00,
2013-02-04 18:17:00,5.4,-21.4,29.75,NW,326,0.0,0.0,27,0.00,,---,0.00,VWS V14.00,2013-02-04 23:17:00,
2013-02-04 18:18:00,5.4,-21.4,29.75,NW,325,0.0,0.0,27,0.00,,---,0.00,VWS V14.00,2013-02-04 23:18:00,
2013-02-04 18:19:00,5.4,-21.4,29.75,NW,326,0.0,0.0,27,0.00,,---,0.00,VWS V14.00,2013-02-04 23:19:00,
2013-02-04 18:21:00,5.2,-21.5,29.75,NW,326,0.0,0.0,27,0.00,,---,0.00,VWS V14.00,2013-02-04 23:21:00,
2013-02-04 18:22:00,5.0,-21.7,29.75,NW,325,0.0,0.0,27,0.00,,---,0.00,VWS V14.00,2013-02-04 23:22:00,
2013-02-04 18:24:00,5.0,-21.7,29.75,NW,326,0.0,0.0,27,0.00,,---,0.00,VWS V14.00,2013-02-04 23:24:00,
2013-02-04 18:26:00,4.8,-21.8,29.75,NW,326,0.0,0.0,27,0.00,,---,0.00,VWS V14.00,2013-02-04 23:26:00,
2013-02-04 18:28:00,4.6,-22.0,29.75,NW,325,0.0,0.0,27,0.00,,---,0.00,VWS V14.00,2013-02-04 23:28:00,
2013-02-04 18:29:00,4.6,-22.0,29.75,NW,326,0.0,0.0,27,0.00,,---,0.00,VWS V14.00,2013-02-04 23:29:00,
2013-02-04 18:31:00,4.5,-22.1,29.75,NW,326,0.0,0.0,27,0.00,,---,0.00,VWS V14.00,2013-02-04 23:31:00,
2013-02-04 18:33:00,4.5,-22.1,29.75,NW,326,0.0,0.0,27,0.00,,---,0.00,VWS V14.00,2013-02-04 23:33:00,
2013-02-04 18:34:00,4.5,-22.1,29.75,NW,326,0.0,0.0,27,0.00,,---,0.00,VWS V14.00,2013-02-04 23:34:00,
2013-02-04 18:36:00,4.5,-22.1,29.75,NW,326,0.0,0.0,27,0.00,,---,0.00,VWS V14.00,2013-02-04 23:36:00,
2013-02-04 18:38:00,4.5,-22.1,29.75,NW,325,0.0,0.0,27,0.00,,---,0.00,VWS V14.00,2013-02-04 23:38:00,
2013-02-04 18:39:00,4.5,-22.1,29.75,NW,326,0.0,0.0,27,0.00,,---,0.00,VWS V14.00,2013-02-04 23:39:00,
2013-02-04 18:41:00,4.3,-22.3,29.75,NW,325,0.0,0.0,27,0.00,,---,0.00,VWS V14.00,2013-02-04 23:41:00,
2013-02-04 18:43:00,4.3,-22.3,29.75,NW,326,0.0,0.0,27,0.00,,---,0.00,VWS V14.00,2013-02-04 23:43:00,
2013-02-04 18:44:00,4.3,-22.3,29.75,NW,326,0.0,0.0,27,0.00,,---,0.00,VWS V14.00,2013-02-04 23:44:00,
2013-02-04 18:46:00,4.1,-22.5,29.75,NW,326,0.0,0.0,27,0.00,,---,0.00,VWS V14.00,2013-02-04 23:46:00,
2013-02-04 18:48:00,4.1,-22.5,29.75,NW,325,0.0,0.0,27,0.00,,---,0.00,VWS V14.00,2013-02-04 23:48:00,
2013-02-04 18:49:00,4.1,-22.5,29.75,NW,326,0.0,0.0,27,0.00,,---,0.00,VWS V14.00,2013-02-04 23:49:00,
2013-02-04 18:51:00,3.9,-22.6,29.75,NW,326,0.0,0.0,27,0.00,,---,0.00,VWS V14.00,2013-02-04 23:51:00,
2013-02-04 18:53:00,3.9,-22.6,29.75,NW,325,0.0,0.0,27,0.00,,---,0.00,VWS V14.00,2013-02-04 23:53:00,
2013-02-04 18:54:00,3.9,-22.6,29.75,NW,325,0.0,0.0,27,0.00,,---,0.00,VWS V14.00,2013-02-04 23:54:00,
2013-02-04 18:55:00,4.1,-22.5,29.75,NW,326,0.0,0.0,27,0.00,,---,0.00,VWS V14.00,2013-02-04 23:55:00,
2013-02-04 18:56:00,3.9,-22.6,29.75,NW,325,0.0,0.0,27,0.00,,---,0.00,VWS V14.00,2013-02-04 23:56:00,
2013-02-04 18:58:00,4.1,-22.5,29.75,NW,326,0.0,0.0,27,0.00,,---,0.00,VWS V14.00,2013-02-04 23:58:00,
2013-02-04 18:59:00,3.9,-22.6,29.75,NW,325,0.0,0.0,27,0.00,,---,0.00,VWS V14.00,2013-02-04 23:59:00,
2013-02-04 19:00:00,4.1,-22.5,29.75,NW,326,0.0,0.0,27,0.00,,---,0.00,VWS V14.00,2013-02-05 00:00:00,
2013-02-04 19:01:00,4.1,-22.5,29.75,NW,325,0.0,0.0,27,0.00,,---,0.00,VWS V14.00,2013-02-05 00:01:00,
2013-02-04 19:03:00,4.1,-22.5,29.75,NW,326,0.0,0.0,27,0.00,,---,0.00,VWS V14.00,2013-02-05 00:03:00,
2013-02-04 19:04:00,4.1,-22.5,29.75,NW,326,0.0,0.0,27,0.00,,---,0.00,VWS V14.00,2013-02-05 00:04:00,
2013-02-04 19:05:00,4.1,-22.5,29.75,NW,326,0.0,0.0,27,0.00,,---,0.00,VWS V14.00,2013-02-05 00:05:00,
2013-02-04 19:06:00,4.1,-22.5,29.78,NW,325,0.0,0.0,27,0.00,,---,0.00,VWS V14.00,2013-02-05 00:06:00,
2013-02-04 19:08:00,3.9,-22.6,29.78,NW,325,0.0,0.0,27,0.00,,---,0.00,VWS V14.00,2013-02-05 00:08:00,
2013-02-04 19:09:00,3.9,-22.6,29.78,NW,325,0.0,0.0,27,0.00,,---,0.00,VWS V14.00,2013-02-05 00:09:00,
2013-02-04 19:10:00,3.9,-22.6,29.78,NW,325,0.0,0.0,27,0.00,,---,0.00,VWS V14.00,2013-02-05 00:10:00,
2013-02-04 19:11:00,3.7,-22.8,29.78,NW,326,0.0,0.0,27,0.00,,---,0.00,VWS V14.00,2013-02-05 00:11:00,
2013-02-04 19:13:00,3.7,-22.8,29.78,NW,326,0.0,0.0,27,0.00,,---,0.00,VWS V14.00,2013-02-05 00:13:00,
2013-02-04 19:14:00,3.7,-22.8,29.78,NW,326,0.0,0.0,27,0.00,,---,0.00,VWS V14.00,2013-02-05 00:14:00,
2013-02-04 19:15:00,3.7,-22.8,29.78,NW,326,0.0,0.0,27,0.00,,---,0.00,VWS V14.00,2013-02-05 00:15:00,
2013-02-04 19:16:00,3.6,-22.9,29.78,NW,326,0.0,0.0,27,0.00,,---,0.00,VWS V14.00,2013-02-05 00:16:00,
2013-02-04 19:19:00,3.4,-23.1,29.78,NW,326,0.0,0.0,27,0.00,,---,0.00,VWS V14.00,2013-02-05 00:19:00,
2013-02-04 19:20:00,3.4,-23.1,29.75,NW,325,0.0,0.0,27,0.00,,---,0.00,VWS V14.00,2013-02-05 00:20:00,
2013-02-04 19:21:00,3.2,-23.2,29.75,NW,326,0.0,0.0,27,0.00,,---,0.00,VWS V14.00,2013-02-05 00:21:00,
2013-02-04 19:24:00,3.0,-23.4,29.75,NW,326,0.0,0.0,27,0.00,,---,0.00,VWS V14.00,2013-02-05 00:24:00,
2013-02-04 19:25:00,3.0,-23.4,29.75,NW,326,0.0,0.0,27,0.00,,---,0.00,VWS V14.00,2013-02-05 00:25:00,
2013-02-04 19:27:00,2.8,-23.5,29.75,NW,326,0.0,0.0,27,0.00,,---,0.00,VWS V14.00,2013-02-05 00:27:00,
2013-02-04 19:29:00,2.8,-23.5,29.75,NW,325,0.0,0.0,27,0.00,,---,0.00,VWS V14.00,2013-02-05 00:29:00,
2013-02-04 19:30:00,2.8,-23.5,29.75,NW,326,0.0,0.0,27,0.00,,---,0.00,VWS V14.00,2013-02-05 00:30:00,
2013-02-04 19:32:00,2.8,-23.5,29.75,NW,326,0.0,0.0,27,0.00,,---,0.00,VWS V14.00,2013-02-05 00:32:00,
2013-02-04 19:34:00,2.8,-23.5,29.75,NW,326,0.0,0.0,27,0.00,,---,0.00,VWS V14.00,2013-02-05 00:34:00,
2013-02-04 19:35:00,2.7,-23.7,29.75,NW,326,0.0,0.0,27,0.00,,---,0.00,VWS V14.00,2013-02-05 00:35:00,
2013-02-04 19:37:00,2.7,-23.7,29.75,NW,325,0.0,0.0,27,0.00,,---,0.00,VWS V14.00,2013-02-05 00:37:00,
2013-02-04 19:39:00,2.5,-23.9,29.75,NW,325,0.0,0.0,27,0.00,,---,0.00,VWS V14.00,2013-02-05 00:39:00,
2013-02-04 19:40:00,2.5,-23.9,29.75,NW,326,0.0,0.0,27,0.00,,---,0.00,VWS V14.00,2013-02-05 00:40:00,
2013-02-04 19:42:00,2.5,-23.9,29.75,NW,326,0.0,0.0,27,0.00,,---,0.00,VWS V14.00,2013-02-05 00:42:00,
2013-02-04 19:44:00,2.5,-23.9,29.75,NW,326,0.0,0.0,27,0.00,,---,0.00,VWS V14.00,2013-02-05 00:44:00,
2013-02-04 19:45:00,2.3,-24.0,29.75,NW,326,0.0,0.0,27,0.00,,---,0.00,VWS V14.00,2013-02-05 00:45:00,
2013-02-04 19:47:00,2.1,-24.2,29.75,NW,326,0.0,0.0,27,0.00,,---,0.00,VWS V14.00,2013-02-05 00:47:00,
2013-02-04 19:49:00,1.8,-24.5,29.75,NW,325,0.0,0.0,27,0.00,,---,0.00,VWS V14.00,2013-02-05 00:49:00,
2013-02-04 19:50:00,1.8,-24.5,29.75,NW,326,0.0,0.0,27,0.00,,---,0.00,VWS V14.00,2013-02-05 00:50:00,
2013-02-04 19:52:00,1.6,-24.6,29.75,NW,325,0.0,0.0,27,0.00,,---,0.00,VWS V14.00,2013-02-05 00:52:00,
2013-02-04 19:54:00,1.2,-25.0,29.75,NW,326,0.0,0.0,27,0.00,,---,0.00,VWS V14.00,2013-02-05 00:54:00,
2013-02-04 19:55:00,1.2,-25.0,29.75,NW,326,0.0,0.0,27,0.00,,---,0.00,VWS V14.00,2013-02-05 00:55:00,
2013-02-04 19:56:00,1.0,-25.1,29.75,NW,325,0.0,0.0,27,0.00,,---,0.00,VWS V14.00,2013-02-05 00:56:00,
2013-02-04 19:57:00,1.0,-25.1,29.75,NW,326,0.0,0.0,27,0.00,,---,0.00,VWS V14.00,2013-02-05 00:57:00,
2013-02-04 20:00:00,0.7,-25.4,29.75,NW,326,0.0,0.0,27,0.00,,---,0.00,VWS V14.00,2013-02-05 01:00:00,
2013-02-04 20:01:00,0.7,-25.4,29.75,NW,326,0.0,0.0,27,0.00,,---,0.00,VWS V14.00,2013-02-05 01:01:00,
2013-02-04 20:02:00,0.7,-25.4,29.75,NW,326,0.0,0.0,27,0.00,,---,0.00,VWS V14.00,2013-02-05 01:02:00,
2013-02-04 20:05:00,0.7,-25.4,29.75,NW,325,0.0,0.0,27,0.00,,---,0.00,VWS V14.00,2013-02-05 01:05:00,
2013-02-04 20:06:00,0.7,-25.4,29.75,NW,325,0.0,0.0,27,0.00,,---,0.00,VWS V14.00,2013-02-05 01:06:00,
2013-02-04 20:07:00,0.7,-25.4,29.75,NW,326,0.0,0.0,27,0.00,,---,0.00,VWS V14.00,2013-02-05 01:07:00,
2013-02-04 20:10:00,0.7,-25.4,29.75,NW,325,0.0,0.0,27,0.00,,---,0.00,VWS V14.00,2013-02-05 01:10:00,
2013-02-04 20:11:00,0.7,-25.4,29.75,NW,326,0.0,0.0,27,0.00,,---,0.00,VWS V14.00,2013-02-05 01:11:00,
2013-02-04 20:12:00,0.7,-25.4,29.75,NW,325,0.0,0.0,27,0.00,,---,0.00,VWS V14.00,2013-02-05 01:12:00,
2013-02-04 20:15:00,0.7,-25.4,29.75,NW,326,0.0,0.0,27,0.00,,---,0.00,VWS V14.00,2013-02-05 01:15:00,
2013-02-04 20:16:00,0.7,-25.4,29.75,NW,325,0.0,0.0,27,0.00,,---,0.00,VWS V14.00,2013-02-05 01:16:00,
2013-02-04 20:17:00,0.5,-25.6,29.75,NW,325,0.0,0.0,27,0.00,,---,0.00,VWS V14.00,2013-02-05 01:17:00,
2013-02-04 20:20:00,0.5,-25.6,29.75,NW,326,0.0,0.0,27,0.00,,---,0.00,VWS V14.00,2013-02-05 01:20:00,
2013-02-04 20:21:00,0.5,-25.6,29.75,NW,326,0.0,0.0,27,0.00,,---,0.00,VWS V14.00,2013-02-05 01:21:00,
2013-02-04 20:22:00,0.5,-25.6,29.75,NW,326,0.0,0.0,27,0.00,,---,0.00,VWS V14.00,2013-02-05 01:22:00,
2013-02-04 20:25:00,0.5,-25.6,29.75,NW,325,0.0,0.0,27,0.00,,---,0.00,VWS V14.00,2013-02-05 01:25:00,
2013-02-04 20:26:00,0.5,-25.6,29.75,NW,326,0.0,0.0,27,0.00,,---,0.00,VWS V14.00,2013-02-05 01:26:00,
2013-02-04 20:27:00,0.7,-25.4,29.75,NW,326,0.0,0.0,27,0.00,,---,0.00,VWS V14.00,2013-02-05 01:27:00,
2013-02-04 20:31:00,1.0,-25.1,29.75,NW,326,0.0,0.0,27,0.00,,---,0.00,VWS V14.00,2013-02-05 01:31:00,
2013-02-04 20:33:00,1.2,-25.0,29.75,NW,326,0.0,0.0,27,0.00,,---,0.00,VWS V14.00,2013-02-05 01:33:00,
2013-02-04 20:36:00,1.4,-24.8,29.75,NW,326,0.0,0.0,27,0.00,,---,0.00,VWS V14.00,2013-02-05 01:36:00,
2013-02-04 20:37:00,1.4,-24.8,29.75,NW,326,0.0,0.0,27,0.00,,---,0.00,VWS V14.00,2013-02-05 01:37:00,
2013-02-04 20:38:00,1.4,-24.8,29.75,NW,326,0.0,0.0,27,0.00,,---,0.00,VWS V14.00,2013-02-05 01:38:00,
2013-02-04 20:41:00,1.6,-24.6,29.75,NW,326,0.0,0.0,27,0.00,,---,0.00,VWS V14.00,2013-02-05 01:41:00,
2013-02-04 20:42:00,1.6,-24.6,29.75,NW,325,0.0,0.0,27,0.00,,---,0.00,VWS V14.00,2013-02-05 01:42:00,
2013-02-04 20:43:00,1.6,-24.6,29.75,NW,326,0.0,0.0,27,0.00,,---,0.00,VWS V14.00,2013-02-05 01:43:00,
2013-02-04 20:46:00,1.4,-24.8,29.75,NW,326,0.0,0.0,27,0.00,,---,0.00,VWS V14.00,2013-02-05 01:46:00,
2013-02-04 20:47:00,1.2,-25.0,29.75,NW,326,0.0,0.0,27,0.00,,---,0.00,VWS V14.00,2013-02-05 01:47:00,
2013-02-04 20:48:00,1.2,-25.0,29.75,NW,326,0.0,0.0,27,0.00,,---,0.00,VWS V14.00,2013-02-05 01:48:00,
2013-02-04 20:51:00,1.0,-25.1,29.75,NW,326,0.0,0.0,27,0.00,,---,0.00,VWS V14.00,2013-02-05 01:51:00,
2013-02-04 20:52:00,0.9,-25.3,29.75,NW,326,0.0,0.0,27,0.00,,---,0.00,VWS V14.00,2013-02-05 01:52:00,
2013-02-04 20:53:00,0.7,-25.4,29.75,NW,326,0.0,0.0,27,0.00,,---,0.00,VWS V14.00,2013-02-05 01:53:00,
2013-02-04 20:56:00,0.7,-25.4,29.75,NW,326,0.0,0.0,27,0.00,,---,0.00,VWS V14.00,2013-02-05 01:56:00,
2013-02-04 20:57:00,0.7,-25.4,29.75,NW,326,0.0,0.0,27,0.00,,---,0.00,VWS V14.00,2013-02-05 01:57:00,
2013-02-04 20:58:00,0.7,-25.4,29.75,NW,325,0.0,0.0,27,0.00,,---,0.00,VWS V14.00,2013-02-05 01:58:00,
2013-02-04 21:01:00,0.5,-25.6,29.75,NW,326,0.0,0.0,27,0.00,,---,0.00,VWS V14.00,2013-02-05 02:01:00,
2013-02-04 21:02:00,0.5,-25.6,29.75,NW,326,0.0,0.0,27,0.00,,---,0.00,VWS V14.00,2013-02-05 02:02:00,
2013-02-04 21:03:00,0.7,-25.4,29.75,NW,325,0.0,0.0,27,0.00,,---,0.00,VWS V14.00,2013-02-05 02:03:00,
2013-02-04 21:06:00,0.7,-25.4,29.75,NW,325,0.0,0.0,27,0.00,,---,0.00,VWS V14.00,2013-02-05 02:06:00,
2013-02-04 21:07:00,0.7,-25.4,29.75,NW,325,0.0,0.0,27,0.00,,---,0.00,VWS V14.00,2013-02-05 02:07:00,
2013-02-04 21:08:00,0.7,-25.4,29.75,NW,326,0.0,0.0,27,0.00,,---,0.00,VWS V14.00,2013-02-05 02:08:00,
2013-02-04 21:11:00,0.7,-25.4,29.75,NW,325,0.0,0.0,27,0.00,,---,0.00,VWS V14.00,2013-02-05 02:11:00,
2013-02-04 21:12:00,0.7,-25.4,29.75,NW,326,0.0,0.0,27,0.00,,---,0.00,VWS V14.00,2013-02-05 02:12:00,
2013-02-04 21:13:00,0.7,-25.4,29.75,NW,326,0.0,0.0,27,0.00,,---,0.00,VWS V14.00,2013-02-05 02:13:00,
2013-02-04 21:16:00,0.9,-25.3,29.75,NW,326,0.0,0.0,27,0.00,,---,0.00,VWS V14.00,2013-02-05 02:16:00,
2013-02-04 21:17:00,0.9,-25.3,29.75,NW,325,0.0,0.0,27,0.00,,---,0.00,VWS V14.00,2013-02-05 02:17:00,
2013-02-04 21:18:00,0.7,-25.4,29.75,NW,326,0.0,0.0,27,0.00,,---,0.00,VWS V14.00,2013-02-05 02:18:00,
2013-02-04 21:21:00,0.9,-25.3,29.75,NW,326,0.0,0.0,27,0.00,,---,0.00,VWS V14.00,2013-02-05 02:21:00,
2013-02-04 21:22:00,0.9,-25.3,29.75,NW,326,0.0,0.0,27,0.00,,---,0.00,VWS V14.00,2013-02-05 02:22:00,
2013-02-04 21:23:00,0.7,-25.4,29.75,NW,325,0.0,0.0,27,0.00,,---,0.00,VWS V14.00,2013-02-05 02:23:00,
2013-02-04 21:26:00,0.7,-25.4,29.75,NW,326,0.0,0.0,27,0.00,,---,0.00,VWS V14.00,2013-02-05 02:26:00,
2013-02-04 21:27:00,0.7,-25.4,29.75,NW,326,0.0,0.0,27,0.00,,---,0.00,VWS V14.00,2013-02-05 02:27:00,
2013-02-04 21:28:00,0.7,-25.4,29.75,NW,326,0.0,0.0,27,0.00,,---,0.00,VWS V14.00,2013-02-05 02:28:00,
2013-02-04 21:31:00,0.7,-25.4,29.75,NW,326,0.0,0.0,27,0.00,,---,0.00,VWS V14.00,2013-02-05 02:31:00,
2013-02-04 21:32:00,0.7,-25.4,29.75,NW,325,0.0,0.0,27,0.00,,---,0.00,VWS V14.00,2013-02-05 02:32:00,
2013-02-04 21:33:00,0.7,-25.4,29.75,NW,326,0.0,0.0,27,0.00,,---,0.00,VWS V14.00,2013-02-05 02:33:00,
2013-02-04 21:36:00,0.7,-25.4,29.75,NW,326,0.0,0.0,27,0.00,,---,0.00,VWS V14.00,2013-02-05 02:36:00,
2013-02-04 21:37:00,0.5,-25.6,29.75,NW,326,0.0,0.0,27,0.00,,---,0.00,VWS V14.00,2013-02-05 02:37:00,
2013-02-04 21:38:00,0.3,-25.8,29.75,NW,325,0.0,0.0,27,0.00,,---,0.00,VWS V14.00,2013-02-05 02:38:00,
2013-02-04 21:41:00,0.3,-25.8,29.75,NW,325,0.0,0.0,27,0.00,,---,0.00,VWS V14.00,2013-02-05 02:41:00,
2013-02-04 21:42:00,0.3,-25.8,29.75,NW,326,0.0,0.0,27,0.00,,---,0.00,VWS V14.00,2013-02-05 02:42:00,
2013-02-04 21:43:00,0.3,-25.8,29.75,NW,326,0.0,0.0,27,0.00,,---,0.00,VWS V14.00,2013-02-05 02:43:00,
2013-02-04 21:47:00,0.3,-25.8,29.75,NW,326,0.0,0.0,27,0.00,,---,0.00,VWS V14.00,2013-02-05 02:47:00,
2013-02-04 21:49:00,0.3,-25.8,29.75,NW,326,0.0,0.0,27,0.00,,---,0.00,VWS V14.00,2013-02-05 02:49:00,
2013-02-04 21:52:00,0.3,-25.8,29.75,NW,326,0.0,0.0,27,0.00,,---,0.00,VWS V14.00,2013-02-05 02:52:00,
2013-02-04 21:54:00,0.3,-25.8,29.75,NW,326,0.0,0.0,27,0.00,,---,0.00,VWS V14.00,2013-02-05 02:54:00,
2013-02-04 21:57:00,0.1,-25.9,29.75,NW,326,0.0,0.0,27,0.00,,---,0.00,VWS V14.00,2013-02-05 02:57:00,
2013-02-04 21:58:00,0.1,-25.9,29.75,NW,326,0.0,0.0,27,0.00,,---,0.00,VWS V14.00,2013-02-05 02:58:00,
2013-02-04 21:59:00,0.1,-25.9,29.75,NW,326,0.0,0.0,27,0.00,,---,0.00,VWS V14.00,2013-02-05 02:59:00,
2013-02-04 22:02:00,0.1,-25.9,29.75,NW,326,0.0,0.0,27,0.00,,---,0.00,VWS V14.00,2013-02-05 03:02:00,
2013-02-04 22:03:00,0.3,-25.8,29.75,NW,326,0.0,0.0,27,0.00,,---,0.00,VWS V14.00,2013-02-05 03:03:00,
2013-02-04 22:04:00,0.3,-25.8,29.75,NW,326,0.0,0.0,27,0.00,,---,0.00,VWS V14.00,2013-02-05 03:04:00,
2013-02-04 22:07:00,0.5,-25.6,29.72,NW,326,0.0,0.0,27,0.00,,---,0.00,VWS V14.00,2013-02-05 03:07:00,
2013-02-04 22:08:00,0.5,-25.6,29.72,NW,326,0.0,0.0,27,0.00,,---,0.00,VWS V14.00,2013-02-05 03:08:00,
2013-02-04 22:09:00,0.7,-25.4,29.72,NW,325,0.0,0.0,27,0.00,,---,0.00,VWS V14.00,2013-02-05 03:09:00,
2013-02-04 22:12:00,0.7,-25.4,29.72,NW,326,0.0,0.0,27,0.00,,---,0.00,VWS V14.00,2013-02-05 03:12:00,
2013-02-04 22:13:00,0.7,-25.4,29.72,NW,326,0.0,0.0,27,0.00,,---,0.00,VWS V14.00,2013-02-05 03:13:00,
2013-02-04 22:14:00,0.7,-25.4,29.72,NW,326,0.0,0.0,27,0.00,,---,0.00,VWS V14.00,2013-02-05 03:14:00,
2013-02-04 22:17:00,0.7,-25.4,29.72,NW,326,0.0,0.0,27,0.00,,---,0.00,VWS V14.00,2013-02-05 03:17:00,
2013-02-04 22:18:00,0.7,-25.4,29.72,NW,326,0.0,0.0,27,0.00,,---,0.00,VWS V14.00,2013-02-05 03:18:00,
2013-02-04 22:19:00,0.7,-25.4,29.72,NW,326,0.0,0.0,27,0.00,,---,0.00,VWS V14.00,2013-02-05 03:19:00,
2013-02-04 22:22:00,0.7,-25.4,29.72,NW,325,0.0,0.0,27,0.00,,---,0.00,VWS V14.00,2013-02-05 03:22:00,
2013-02-04 22:23:00,0.7,-25.4,29.72,NW,326,0.0,0.0,27,0.00,,---,0.00,VWS V14.00,2013-02-05 03:23:00,
2013-02-04 22:25:00,0.7,-25.4,29.72,NW,325,0.0,0.0,27,0.00,,---,0.00,VWS V14.00,2013-02-05 03:25:00,
2013-02-04 22:27:00,1.0,-25.1,29.72,NW,326,0.0,0.0,27,0.00,,---,0.00,VWS V14.00,2013-02-05 03:27:00,
2013-02-04 22:28:00,1.0,-25.1,29.72,NW,326,0.0,0.0,27,0.00,,---,0.00,VWS V14.00,2013-02-05 03:28:00,
2013-02-04 22:30:00,1.2,-25.0,29.72,NW,326,0.0,0.0,27,0.00,,---,0.00,VWS V14.00,2013-02-05 03:30:00,
2013-02-04 22:33:00,1.2,-25.0,29.72,NW,326,0.0,0.0,27,0.00,,---,0.00,VWS V14.00,2013-02-05 03:33:00,
2013-02-04 22:35:00,1.4,-24.8,29.72,NW,326,0.0,0.0,27,0.00,,---,0.00,VWS V14.00,2013-02-05 03:35:00,
2013-02-04 22:38:00,1.4,-24.8,29.72,NW,325,0.0,0.0,27,0.00,,---,0.00,VWS V14.00,2013-02-05 03:38:00,
2013-02-04 22:40:00,1.4,-24.8,29.72,NW,326,0.0,0.0,27,0.00,,---,0.00,VWS V14.00,2013-02-05 03:40:00,
2013-02-04 22:43:00,1.2,-25.0,29.72,NW,325,0.0,0.0,27,0.00,,---,0.00,VWS V14.00,2013-02-05 03:43:00,
2013-02-04 22:45:00,0.9,-25.3,29.72,NW,326,0.0,0.0,27,0.00,,---,0.00,VWS V14.00,2013-02-05 03:45:00,
2013-02-04 22:48:00,0.7,-25.4,29.72,NW,326,0.0,0.0,27,0.00,,---,0.00,VWS V14.00,2013-02-05 03:48:00,
2013-02-04 22:50:00,0.3,-25.8,29.69,NW,326,0.0,0.0,27,0.00,,---,0.00,VWS V14.00,2013-02-05 03:50:00,
2013-02-04 22:53:00,0.0,-26.1,29.69,NW,326,0.0,0.0,27,0.00,,---,0.00,VWS V14.00,2013-02-05 03:53:00,
2013-02-04 22:55:00,-0.2,-26.2,29.69,NW,326,0.0,0.0,27,0.00,,---,0.00,VWS V14.00,2013-02-05 03:55:00,
2013-02-04 22:58:00,-0.6,-26.5,29.69,NW,325,0.0,0.0,27,0.00,,---,0.00,VWS V14.00,2013-02-05 03:58:00,
2013-02-04 23:00:00,-0.6,-26.5,29.69,NW,326,0.0,0.0,27,0.00,,---,0.00,VWS V14.00,2013-02-05 04:00:00,
2013-02-04 23:03:00,-0.6,-26.5,29.69,NW,326,0.0,0.0,27,0.00,,---,0.00,VWS V14.00,2013-02-05 04:03:00,
2013-02-04 23:04:00,-0.6,-26.5,29.69,NW,326,0.0,0.0,27,0.00,,---,0.00,VWS V14.00,2013-02-05 04:04:00,
2013-02-04 23:06:00,-0.6,-26.5,29.72,NW,326,0.0,0.0,27,0.00,,---,0.00,VWS V14.00,2013-02-05 04:06:00,
2013-02-04 23:08:00,-0.6,-26.5,29.72,NW,325,0.0,0.0,27,0.00,,---,0.00,VWS V14.00,2013-02-05 04:08:00,
2013-02-04 23:09:00,-0.6,-26.5,29.72,NW,325,0.0,0.0,27,0.00,,---,0.00,VWS V14.00,2013-02-05 04:09:00,
2013-02-04 23:11:00,-0.6,-26.5,29.72,NW,326,0.0,0.0,27,0.00,,---,0.00,VWS V14.00,2013-02-05 04:11:00,
2013-02-04 23:13:00,-0.6,-26.5,29.72,NW,326,0.0,0.0,27,0.00,,---,0.00,VWS V14.00,2013-02-05 04:13:00,
2013-02-04 23:14:00,-0.8,-26.7,29.72,NW,325,0.0,0.0,27,0.00,,---,0.00,VWS V14.00,2013-02-05 04:14:00,
2013-02-04 23:16:00,-0.6,-26.5,29.72,NW,326,0.0,0.0,27,0.00,,---,0.00,VWS V14.00,2013-02-05 04:16:00,
2013-02-04 23:18:00,-0.9,-26.9,29.72,NW,326,0.0,0.0,27,0.00,,---,0.00,VWS V14.00,2013-02-05 04:18:00,
2013-02-04 23:19:00,-0.9,-26.9,29.72,NW,325,0.0,0.0,27,0.00,,---,0.00,VWS V14.00,2013-02-05 04:19:00,
2013-02-04 23:21:00,-0.9,-26.9,29.69,NW,326,0.0,0.0,27,0.00,,---,0.00,VWS V14.00,2013-02-05 04:21:00,
2013-02-04 23:23:00,-1.1,-27.0,29.69,NW,326,0.0,0.0,27,0.00,,---,0.00,VWS V14.00,2013-02-05 04:23:00,
2013-02-04 23:24:00,-1.1,-27.0,29.69,NW,326,0.0,0.0,27,0.00,,---,0.00,VWS V14.00,2013-02-05 04:24:00,
2013-02-04 23:26:00,-1.3,-27.2,29.69,NW,326,0.0,0.0,27,0.00,,---,0.00,VWS V14.00,2013-02-05 04:26:00,
2013-02-04 23:28:00,-1.5,-27.3,29.69,NW,326,0.0,0.0,27,0.00,,---,0.00,VWS V14.00,2013-02-05 04:28:00,
2013-02-04 23:29:00,-1.5,-27.3,29.69,NW,325,0.0,0.0,27,0.00,,---,0.00,VWS V14.00,2013-02-05 04:29:00,
2013-02-04 23:31:00,-1.7,-27.5,29.69,NW,326,0.0,0.0,27,0.00,,---,0.00,VWS V14.00,2013-02-05 04:31:00,
2013-02-04 23:34:00,-1.8,-27.6,29.69,NW,325,0.0,0.0,27,0.00,,---,0.00,VWS V14.00,2013-02-05 04:34:00,
2013-02-04 23:36:00,-1.8,-27.6,29.69,NW,325,0.0,0.0,27,0.00,,---,0.00,VWS V14.00,2013-02-05 04:36:00,
2013-02-04 23:39:00,-1.7,-27.5,29.69,NW,326,0.0,0.0,27,0.00,,---,0.00,VWS V14.00,2013-02-05 04:39:00,
2013-02-04 23:41:00,-1.5,-27.3,29.69,NW,325,0.0,0.0,27,0.00,,---,0.00,VWS V14.00,2013-02-05 04:41:00,
2013-02-04 23:44:00,-1.3,-27.2,29.69,NW,326,0.0,0.0,27,0.00,,---,0.00,VWS V14.00,2013-02-05 04:44:00,
2013-02-04 23:46:00,-1.3,-27.2,29.69,NW,326,0.0,0.0,27,0.00,,---,0.00,VWS V14.00,2013-02-05 04:46:00,
2013-02-04 23:49:00,-0.9,-26.9,29.69,NW,325,0.0,0.0,27,0.00,,---,0.00,VWS V14.00,2013-02-05 04:49:00,
2013-02-04 23:51:00,-0.8,-26.7,29.69,NW,326,0.0,0.0,27,0.00,,---,0.00,VWS V14.00,2013-02-05 04:51:00,
2013-02-04 23:54:00,-0.4,-26.4,29.69,NW,325,0.0,0.0,27,0.00,,---,0.00,VWS V14.00,2013-02-05 04:54:00,
2013-02-04 23:56:00,0.0,-26.1,29.69,NW,326,0.0,0.0,27,0.00,,---,0.00,VWS V14.00,2013-02-05 04:56:00,
2013-02-04 23:59:00,0.1,-25.9,29.69,NW,326,0.0,0.0,27,0.00,,---,0.00,VWS V14.00,2013-02-05 04:59:00,